Wetterdaten: Sonntag, 31.10.2021
Datum Zeit Temp. Aussen Temp. o. S. Temp +5cm Feuchte Auss Luftdruck Regen Sonnenschein Regendauer Solar Windben Empfang
31.10.2021 00:00 12,0 C 11,1 C 10,6 C 96 % 1005,9 hPa 0,0 l/m 0 min 0 min 0 W/m 12,9 km/h (3 Bft) 97,87 %
31.10.2021 00:02 12,0 C 11,1 C 10,6 C 96 % 1005,9 hPa 0,0 l/m 0 min 0 min 0 W/m 16,1 km/h (3 Bft) 95,00 %
31.10.2021 00:04 12,0 C 11,1 C 10,6 C 96 % 1005,9 hPa 0,0 l/m 0 min 0 min 0 W/m 6,4 km/h (2 Bft) 97,87 %
31.10.2021 00:08 12,0 C 11,1 C 10,6 C 96 % 1005,9 hPa 0,0 l/m 0 min 0 min 0 W/m 12,9 km/h (3 Bft) 97,85 %
31.10.2021 00:10 12,0 C 11,1 C 10,6 C 96 % 1006,0 hPa 0,0 l/m 0 min 0 min 0 W/m 6,4 km/h (2 Bft) 97,87 %
31.10.2021 00:12 12,0 C 11,1 C 10,6 C 96 % 1006,0 hPa 0,0 l/m 0 min 0 min 0 W/m 3,2 km/h (1 Bft) 93,62 %
31.10.2021 00:14 12,0 C 11,1 C 10,6 C 96 % 1006,0 hPa 0,0 l/m 0 min 0 min 0 W/m 6,4 km/h (2 Bft) 93,62 %
31.10.2021 00:16 12,0 C 11,1 C 10,6 C 96 % 1006,0 hPa 0,0 l/m 0 min 0 min 0 W/m 3,2 km/h (1 Bft) 91,49 %
31.10.2021 00:18 11,9 C 11,1 C 10,6 C 96 % 1006,0 hPa 0,0 l/m 0 min 0 min 0 W/m 6,4 km/h (2 Bft) 93,62 %
31.10.2021 00:20 11,9 C 11,1 C 10,6 C 96 % 1006,0 hPa 0,0 l/m 0 min 0 min 0 W/m 6,4 km/h (2 Bft) 93,48 %
31.10.2021 00:22 11,9 C 11,1 C 10,6 C 96 % 1006,0 hPa 0,0 l/m 0 min 0 min 0 W/m 12,9 km/h (3 Bft) 93,62 %
31.10.2021 00:24 11,8 C 11,1 C 10,6 C 96 % 1006,1 hPa 0,0 l/m 0 min 0 min 0 W/m 3,2 km/h (1 Bft) 95,74 %
31.10.2021 00:26 11,8 C 11,1 C 10,6 C 96 % 1006,1 hPa 0,0 l/m 0 min 0 min 0 W/m 6,4 km/h (2 Bft) 95,74 %
31.10.2021 00:28 11,8 C 10,6 C 10,6 C 96 % 1006,2 hPa 0,0 l/m 0 min 0 min 0 W/m 3,2 km/h (1 Bft) 91,49 %
31.10.2021 00:30 11,8 C 10,6 C 10,6 C 96 % 1006,2 hPa 0,0 l/m 0 min 0 min 0 W/m 6,4 km/h (2 Bft) 93,62 %
31.10.2021 00:32 11,7 C 10,6 C 10,6 C 96 % 1006,2 hPa 0,0 l/m 0 min 0 min 0 W/m 6,4 km/h (2 Bft) 95,65 %
31.10.2021 00:34 11,7 C 10,6 C 10,6 C 96 % 1006,2 hPa 0,0 l/m 0 min 0 min 0 W/m 12,9 km/h (3 Bft) 95,74 %
31.10.2021 00:36 11,7 C 10,6 C 10,6 C 96 % 1006,3 hPa 0,0 l/m 0 min 0 min 0 W/m 6,4 km/h (2 Bft) 95,74 %
31.10.2021 00:38 11,6 C 10,6 C 10,6 C 97 % 1006,3 hPa 0,0 l/m 0 min 0 min 0 W/m 12,9 km/h (3 Bft) 95,74 %
31.10.2021 00:40 11,6 C 10,6 C 10,6 C 97 % 1006,2 hPa 0,0 l/m 0 min 0 min 0 W/m 3,2 km/h (1 Bft) 95,74 %
31.10.2021 00:42 11,6 C 10,6 C 10,6 C 97 % 1006,3 hPa 0,0 l/m 0 min 0 min 0 W/m 6,4 km/h (2 Bft) 93,62 %
31.10.2021 00:44 11,6 C 10,6 C 10,6 C 97 % 1006,3 hPa 0,0 l/m 0 min 0 min 0 W/m 12,9 km/h (3 Bft) 95,65 %
31.10.2021 00:46 11,6 C 10,6 C 10,6 C 97 % 1006,4 hPa 0,0 l/m 0 min 0 min 0 W/m 6,4 km/h (2 Bft) 95,74 %
31.10.2021 00:48 11,5 C 10,6 C 10,6 C 97 % 1006,4 hPa 0,0 l/m 0 min 0 min 0 W/m 3,2 km/h (1 Bft) 97,87 %
31.10.2021 00:50 11,5 C 10,6 C 10,6 C 97 % 1006,4 hPa 0,0 l/m 0 min 0 min 0 W/m 6,4 km/h (2 Bft) 97,87 %
31.10.2021 00:52 11,5 C 10,6 C 10,6 C 96 % 1006,4 hPa 0,0 l/m 0 min 0 min 0 W/m 6,4 km/h (2 Bft) 97,87 %
31.10.2021 00:54 11,5 C 10,6 C 10,6 C 96 % 1006,5 hPa 0,0 l/m 0 min 0 min 0 W/m 12,9 km/h (3 Bft) 97,87 %
31.10.2021 00:56 11,5 C 10,6 C 10,6 C 96 % 1006,5 hPa 0,0 l/m 0 min 0 min 0 W/m 12,9 km/h (3 Bft) 100,00 %
31.10.2021 00:58 11,5 C 10,6 C 10,6 C 96 % 1006,6 hPa 0,0 l/m 0 min 0 min 0 W/m 6,4 km/h (2 Bft) 100,00 %
31.10.2021 01:00 11,5 C 10,6 C 10,6 C 96 % 1006,6 hPa 0,0 l/m 0 min 0 min 0 W/m 12,9 km/h (3 Bft) 100,00 %
31.10.2021 01:02 11,5 C 10,6 C 10,6 C 96 % 1006,6 hPa 0,0 l/m 0 min 0 min 0 W/m 6,4 km/h (2 Bft) 100,00 %
31.10.2021 01:04 11,5 C 10,6 C 10,6 C 97 % 1006,7 hPa 0,0 l/m 0 min 0 min 0 W/m 6,4 km/h (2 Bft) 100,00 %
31.10.2021 01:06 11,5 C 10,6 C 10,6 C 97 % 1006,8 hPa 0,0 l/m 0 min 0 min 0 W/m 6,4 km/h (2 Bft) 100,00 %
31.10.2021 01:08 11,4 C 10,6 C 10,0 C 97 % 1006,7 hPa 0,0 l/m 0 min 0 min 0 W/m 3,2 km/h (1 Bft) 100,00 %
31.10.2021 01:10 11,4 C 10,6 C 10,0 C 97 % 1006,8 hPa 0,0 l/m 0 min 0 min 0 W/m 6,4 km/h (2 Bft) 100,00 %
31.10.2021 01:12 11,4 C 10,6 C 10,0 C 97 % 1006,7 hPa 0,0 l/m 0 min 0 min 0 W/m 6,4 km/h (2 Bft) 100,00 %
31.10.2021 01:14 11,4 C 10,6 C 10,0 C 97 % 1006,7 hPa 0,0 l/m 0 min 0 min 0 W/m 9,7 km/h (2 Bft) 100,00 %
31.10.2021 01:16 11,4 C 10,6 C 10,0 C 97 % 1006,7 hPa 0,0 l/m 0 min 0 min 0 W/m 3,2 km/h (1 Bft) 100,00 %
31.10.2021 01:18 11,4 C 10,6 C 10,0 C 97 % 1006,8 hPa 0,0 l/m 0 min 0 min 0 W/m 6,4 km/h (2 Bft) 100,00 %
31.10.2021 01:20 11,3 C 10,6 C 10,0 C 97 % 1006,8 hPa 0,0 l/m 0 min 0 min 0 W/m 6,4 km/h (2 Bft) 100,00 %
31.10.2021 01:22 11,3 C 10,6 C 10,0 C 97 % 1006,8 hPa 0,0 l/m 0 min 0 min 0 W/m 6,4 km/h (2 Bft) 98,25 %
31.10.2021 01:24 11,3 C 10,6 C 10,0 C 97 % 1006,9 hPa 0,0 l/m 0 min 0 min 0 W/m 3,2 km/h (1 Bft) 100,00 %
31.10.2021 01:26 11,3 C 10,6 C 10,0 C 97 % 1006,8 hPa 0,0 l/m 0 min 0 min 0 W/m 3,2 km/h (1 Bft) 97,87 %
31.10.2021 01:28 11,3 C 10,6 C 10,0 C 97 % 1006,8 hPa 0,0 l/m 0 min 0 min 0 W/m 6,4 km/h (2 Bft) 100,00 %
31.10.2021 01:30 11,3 C 10,6 C 10,0 C 97 % 1006,8 hPa 0,0 l/m 0 min 0 min 0 W/m 6,4 km/h (2 Bft) 100,00 %
31.10.2021 01:32 11,2 C 10,6 C 10,0 C 97 % 1006,9 hPa 0,0 l/m 0 min 0 min 0 W/m 6,4 km/h (2 Bft) 97,87 %
31.10.2021 01:34 11,2 C 10,6 C 10,0 C 97 % 1006,9 hPa 0,0 l/m 0 min 0 min 0 W/m 6,4 km/h (2 Bft) 100,00 %
31.10.2021 01:36 11,2 C 10,6 C 10,0 C 97 % 1006,9 hPa 0,0 l/m 0 min 0 min 0 W/m 3,2 km/h (1 Bft) 97,87 %
31.10.2021 01:38 11,1 C 10,6 C 10,0 C 97 % 1006,9 hPa 0,0 l/m 0 min 0 min 0 W/m 6,4 km/h (2 Bft) 100,00 %
31.10.2021 01:40 11,1 C 10,6 C 10,0 C 97 % 1007,0 hPa 0,0 l/m 0 min 0 min 0 W/m 9,7 km/h (2 Bft) 100,00 %
31.10.2021 01:42 11,1 C 10,6 C 10,0 C 97 % 1007,0 hPa 0,0 l/m 0 min 0 min 0 W/m 9,7 km/h (2 Bft) 100,00 %
31.10.2021 01:44 11,1 C 10,6 C 10,0 C 97 % 1007,0 hPa 0,0 l/m 0 min 0 min 0 W/m 3,2 km/h (1 Bft) 100,00 %
31.10.2021 01:46 11,1 C 10,6 C 10,0 C 97 % 1007,1 hPa 0,0 l/m 0 min 0 min 0 W/m 9,7 km/h (2 Bft) 100,00 %
31.10.2021 01:48 11,1 C 10,6 C 10,0 C 97 % 1007,1 hPa 0,0 l/m 0 min 0 min 0 W/m 9,7 km/h (2 Bft) 100,00 %
31.10.2021 01:50 11,1 C 10,6 C 10,0 C 97 % 1007,1 hPa 0,0 l/m 0 min 0 min 0 W/m 6,4 km/h (2 Bft) 100,00 %
31.10.2021 01:52 11,1 C 10,6 C 10,0 C 97 % 1007,1 hPa 0,0 l/m 0 min 0 min 0 W/m 3,2 km/h (1 Bft) 100,00 %
31.10.2021 01:54 11,1 C 10,6 C 10,0 C 97 % 1007,1 hPa 0,0 l/m 0 min 0 min 0 W/m 3,2 km/h (1 Bft) 45,95 %
31.10.2021 01:56 11,1 C 10,0 C 10,0 C 97 % 1007,1 hPa 0,0 l/m 0 min 0 min 0 W/m 3,2 km/h (1 Bft) 100,00 %
31.10.2021 01:58 11,1 C 10,0 C 10,0 C 97 % 1007,1 hPa 0,0 l/m 0 min 0 min 0 W/m 6,4 km/h (2 Bft) 100,00 %
31.10.2021 02:00 11,1 C 10,0 C 10,0 C 97 % 1007,2 hPa 0,0 l/m 0 min 0 min 0 W/m 3,2 km/h (1 Bft) 97,87 %
31.10.2021 02:02 11,0 C 10,0 C 10,0 C 97 % 1007,2 hPa 0,0 l/m 0 min 0 min 0 W/m 6,4 km/h (2 Bft) 100,00 %
31.10.2021 02:04 11,0 C 10,0 C 10,0 C 97 % 1007,1 hPa 0,0 l/m 0 min 0 min 0 W/m 6,4 km/h (2 Bft) 93,62 %
31.10.2021 02:06 11,0 C 10,0 C 10,0 C 97 % 1007,2 hPa 0,0 l/m 0 min 0 min 0 W/m 6,4 km/h (2 Bft) 98,31 %
31.10.2021 02:08 11,0 C 10,0 C 10,0 C 97 % 1007,1 hPa 0,0 l/m 0 min 0 min 0 W/m 9,7 km/h (2 Bft) 95,65 %
31.10.2021 02:10 11,0 C 10,0 C 10,0 C 97 % 1007,2 hPa 0,0 l/m 0 min 0 min 0 W/m 6,4 km/h (2 Bft) 95,74 %
31.10.2021 02:12 11,0 C 10,0 C 10,0 C 97 % 1007,2 hPa 0,0 l/m 0 min 0 min 0 W/m 9,7 km/h (2 Bft) 97,14 %
31.10.2021 02:14 11,0 C 10,0 C 10,0 C 97 % 1007,2 hPa 0,0 l/m 0 min 0 min 0 W/m 9,7 km/h (2 Bft) 96,61 %
31.10.2021 02:16 11,0 C 10,0 C 10,0 C 97 % 1007,3 hPa 0,0 l/m 0 min 0 min 0 W/m 12,9 km/h (3 Bft) 97,14 %
31.10.2021 02:18 11,0 C 10,6 C 10,0 C 97 % 1007,3 hPa 0,0 l/m 0 min 0 min 0 W/m 19,3 km/h (3 Bft) 96,61 %
31.10.2021 02:20 11,0 C 10,0 C 10,0 C 97 % 1007,2 hPa 0,0 l/m 0 min 0 min 0 W/m 6,4 km/h (2 Bft) 97,14 %
31.10.2021 02:22 11,0 C 10,0 C 10,0 C 97 % 1007,2 hPa 0,0 l/m 0 min 0 min 0 W/m 12,9 km/h (3 Bft) 96,55 %
31.10.2021 02:24 11,0 C 10,0 C 10,0 C 97 % 1007,2 hPa 0,0 l/m 0 min 0 min 0 W/m 6,4 km/h (2 Bft) 100,00 %
31.10.2021 02:26 11,0 C 10,0 C 10,0 C 97 % 1007,3 hPa 0,0 l/m 0 min 0 min 0 W/m 9,7 km/h (2 Bft) 97,87 %
31.10.2021 02:28 10,9 C 10,0 C 10,0 C 97 % 1007,3 hPa 0,0 l/m 0 min 0 min 0 W/m 12,9 km/h (3 Bft) 95,74 %
31.10.2021 02:30 10,9 C 10,0 C 10,0 C 97 % 1007,3 hPa 0,0 l/m 0 min 0 min 0 W/m 16,1 km/h (3 Bft) 95,74 %
31.10.2021 02:32 10,9 C 10,0 C 10,0 C 97 % 1007,4 hPa 0,0 l/m 0 min 0 min 0 W/m 6,4 km/h (2 Bft) 91,49 %
31.10.2021 02:34 10,9 C 10,0 C 10,0 C 97 % 1007,4 hPa 0,0 l/m 0 min 0 min 0 W/m 9,7 km/h (2 Bft) 96,55 %
31.10.2021 02:36 10,9 C 10,0 C 10,0 C 97 % 1007,3 hPa 0,0 l/m 0 min 0 min 0 W/m 6,4 km/h (2 Bft) 93,62 %
31.10.2021 02:38 10,9 C 10,0 C 10,0 C 97 % 1007,4 hPa 0,0 l/m 0 min 0 min 0 W/m 12,9 km/h (3 Bft) 97,14 %
31.10.2021 02:40 10,9 C 10,0 C 10,0 C 97 % 1007,4 hPa 0,0 l/m 0 min 0 min 0 W/m 6,4 km/h (2 Bft) 95,74 %
31.10.2021 02:42 10,8 C 10,0 C 10,0 C 97 % 1007,4 hPa 0,0 l/m 0 min 0 min 0 W/m 3,2 km/h (1 Bft) 97,87 %
31.10.2021 02:44 10,8 C 10,0 C 10,0 C 97 % 1007,3 hPa 0,0 l/m 0 min 0 min 0 W/m 12,9 km/h (3 Bft) 93,62 %
31.10.2021 02:46 10,8 C 10,0 C 10,0 C 97 % 1007,4 hPa 0,0 l/m 0 min 0 min 0 W/m 9,7 km/h (2 Bft) 93,62 %
31.10.2021 02:48 10,8 C 10,0 C 10,0 C 97 % 1007,4 hPa 0,0 l/m 0 min 0 min 0 W/m 16,1 km/h (3 Bft) 93,48 %
31.10.2021 02:50 10,8 C 10,0 C 10,0 C 97 % 1007,5 hPa 0,0 l/m 0 min 0 min 0 W/m 12,9 km/h (3 Bft) 95,74 %
31.10.2021 02:52 10,8 C 10,0 C 10,0 C 97 % 1007,4 hPa 0,0 l/m 0 min 0 min 0 W/m 6,4 km/h (2 Bft) 95,74 %
31.10.2021 02:54 10,8 C 10,0 C 10,0 C 97 % 1007,3 hPa 0,0 l/m 0 min 0 min 0 W/m 6,4 km/h (2 Bft) 93,62 %
31.10.2021 02:56 10,8 C 10,0 C 10,0 C 97 % 1007,3 hPa 0,0 l/m 0 min 0 min 0 W/m 12,9 km/h (3 Bft) 93,62 %
31.10.2021 02:58 10,7 C 10,0 C 10,0 C 97 % 1007,3 hPa 0,0 l/m 0 min 0 min 0 W/m 9,7 km/h (2 Bft) 93,62 %
31.10.2021 02:00 10,7 C 10,0 C 10,0 C 97 % 1007,3 hPa 0,0 l/m 0 min 0 min 0 W/m 9,7 km/h (2 Bft) 95,65 %
31.10.2021 02:04 10,6 C 10,0 C 10,0 C 97 % 1007,3 hPa 0,0 l/m 0 min 0 min 0 W/m 9,7 km/h (2 Bft) 94,68 %
31.10.2021 02:06 10,6 C 10,0 C 10,0 C 97 % 1007,3 hPa 0,0 l/m 0 min 0 min 0 W/m 6,4 km/h (2 Bft) 94,92 %
31.10.2021 02:08 10,6 C 10,0 C 9,5 C 97 % 1007,2 hPa 0,0 l/m 0 min 0 min 0 W/m 3,2 km/h (1 Bft) 95,65 %
31.10.2021 02:10 10,6 C 10,0 C 10,0 C 97 % 1007,3 hPa 0,0 l/m 0 min 0 min 0 W/m 3,2 km/h (1 Bft) 94,44 %
31.10.2021 02:12 10,6 C 10,0 C 9,5 C 97 % 1007,3 hPa 0,0 l/m 0 min 0 min 0 W/m 9,7 km/h (2 Bft) 95,65 %
31.10.2021 02:14 10,6 C 10,0 C 9,5 C 97 % 1007,3 hPa 0,0 l/m 0 min 0 min 0 W/m 9,7 km/h (2 Bft) 95,74 %
31.10.2021 02:16 10,6 C 10,0 C 9,5 C 97 % 1007,2 hPa 0,0 l/m 0 min 0 min 0 W/m 6,4 km/h (2 Bft) 95,74 %
31.10.2021 02:18 10,5 C 10,0 C 9,5 C 97 % 1007,2 hPa 0,0 l/m 0 min 0 min 0 W/m 3,2 km/h (1 Bft) 93,62 %
31.10.2021 02:20 10,5 C 10,0 C 9,5 C 97 % 1007,3 hPa 0,0 l/m 0 min 0 min 0 W/m 9,7 km/h (2 Bft) 95,74 %
31.10.2021 02:22 10,5 C 10,0 C 9,5 C 97 % 1007,3 hPa 0,0 l/m 0 min 0 min 0 W/m 6,4 km/h (2 Bft) 95,74 %
31.10.2021 02:24 10,5 C 10,0 C 9,5 C 97 % 1007,3 hPa 0,0 l/m 0 min 0 min 0 W/m 9,7 km/h (2 Bft) 100,00 %
31.10.2021 02:26 10,5 C 10,0 C 9,5 C 97 % 1007,3 hPa 0,0 l/m 0 min 0 min 0 W/m 6,4 km/h (2 Bft) 97,87 %
31.10.2021 02:28 10,5 C 10,0 C 9,5 C 97 % 1007,3 hPa 0,0 l/m 0 min 0 min 0 W/m 12,9 km/h (3 Bft) 97,87 %
31.10.2021 02:30 10,5 C 10,0 C 9,5 C 97 % 1007,4 hPa 0,0 l/m 0 min 0 min 0 W/m 3,2 km/h (1 Bft) 100,00 %
31.10.2021 02:32 10,5 C 10,0 C 9,5 C 97 % 1007,4 hPa 0,0 l/m 0 min 0 min 0 W/m 9,7 km/h (2 Bft) 97,87 %
31.10.2021 02:34 10,5 C 10,0 C 9,5 C 97 % 1007,4 hPa 0,0 l/m 0 min 0 min 0 W/m 9,7 km/h (2 Bft) 100,00 %
31.10.2021 02:36 10,5 C 10,0 C 9,5 C 97 % 1007,5 hPa 0,0 l/m 0 min 0 min 0 W/m 6,4 km/h (2 Bft) 97,83 %
31.10.2021 02:38 10,5 C 10,0 C 9,5 C 97 % 1007,5 hPa 0,0 l/m 0 min 0 min 0 W/m 9,7 km/h (2 Bft) 95,74 %
31.10.2021 02:40 10,5 C 10,0 C 9,5 C 97 % 1007,5 hPa 0,0 l/m 0 min 0 min 0 W/m 12,9 km/h (3 Bft) 100,00 %
31.10.2021 02:42 10,4 C 9,4 C 9,5 C 97 % 1007,5 hPa 0,0 l/m 0 min 0 min 0 W/m 12,9 km/h (3 Bft) 100,00 %
31.10.2021 02:44 10,4 C 9,4 C 9,5 C 97 % 1007,5 hPa 0,0 l/m 0 min 0 min 0 W/m 3,2 km/h (1 Bft) 100,00 %
31.10.2021 02:46 10,4 C 9,4 C 9,5 C 97 % 1007,5 hPa 0,0 l/m 0 min 0 min 0 W/m 6,4 km/h (2 Bft) 100,00 %
31.10.2021 02:48 10,4 C 9,4 C 9,5 C 97 % 1007,5 hPa 0,0 l/m 0 min 0 min 0 W/m 3,2 km/h (1 Bft) 100,00 %
31.10.2021 02:50 10,4 C 9,4 C 9,5 C 97 % 1007,5 hPa 0,0 l/m 0 min 0 min 0 W/m 3,2 km/h (1 Bft) 100,00 %
31.10.2021 02:52 10,4 C 9,4 C 9,5 C 97 % 1007,5 hPa 0,0 l/m 0 min 0 min 0 W/m 3,2 km/h (1 Bft) 100,00 %
31.10.2021 02:54 10,4 C 9,4 C 9,5 C 97 % 1007,6 hPa 0,0 l/m 0 min 0 min 0 W/m 3,2 km/h (1 Bft) 100,00 %
31.10.2021 02:56 10,4 C 9,4 C 9,5 C 97 % 1007,6 hPa 0,0 l/m 0 min 0 min 0 W/m 3,2 km/h (1 Bft) 100,00 %
31.10.2021 02:58 10,3 C 9,4 C 9,5 C 97 % 1007,6 hPa 0,0 l/m 0 min 0 min 0 W/m 3,2 km/h (1 Bft) 100,00 %
31.10.2021 03:00 10,3 C 9,4 C 9,5 C 97 % 1007,7 hPa 0,0 l/m 0 min 0 min 0 W/m 3,2 km/h (1 Bft) 97,83 %
31.10.2021 03:02 10,3 C 9,4 C 9,5 C 97 % 1007,7 hPa 0,0 l/m 0 min 0 min 0 W/m 3,2 km/h (1 Bft) 95,74 %
31.10.2021 03:04 10,3 C 9,4 C 9,5 C 97 % 1007,7 hPa 0,0 l/m 0 min 0 min 0 W/m 3,2 km/h (1 Bft) 97,87 %
31.10.2021 03:06 10,3 C 9,4 C 9,5 C 97 % 1007,7 hPa 0,0 l/m 0 min 0 min 0 W/m 3,2 km/h (1 Bft) 97,87 %
31.10.2021 03:08 10,3 C 9,4 C 9,5 C 97 % 1007,8 hPa 0,0 l/m 0 min 0 min 0 W/m 0,0 km/h (0 Bft) 97,87 %
31.10.2021 03:10 10,2 C 9,4 C 9,5 C 97 % 1007,7 hPa 0,0 l/m 0 min 0 min 0 W/m 3,2 km/h (1 Bft) 97,83 %
31.10.2021 03:12 10,1 C 9,4 C 9,5 C 97 % 1007,7 hPa 0,0 l/m 0 min 0 min 0 W/m 3,2 km/h (1 Bft) 97,87 %
31.10.2021 03:14 10,1 C 9,4 C 9,5 C 97 % 1007,8 hPa 0,0 l/m 0 min 0 min 0 W/m 0,0 km/h (0 Bft) 97,87 %
31.10.2021 03:16 10,1 C 9,4 C 9,5 C 97 % 1007,8 hPa 0,0 l/m 0 min 0 min 0 W/m 3,2 km/h (1 Bft) 97,87 %
31.10.2021 03:18 10,1 C 9,4 C 9,5 C 97 % 1007,7 hPa 0,0 l/m 0 min 0 min 0 W/m 0,0 km/h (0 Bft) 97,87 %
31.10.2021 03:20 10,1 C 9,4 C 9,5 C 97 % 1007,8 hPa 0,0 l/m 0 min 0 min 0 W/m 3,2 km/h (1 Bft) 97,87 %
31.10.2021 03:22 10,1 C 9,4 C 9,5 C 97 % 1007,7 hPa 0,0 l/m 0 min 0 min 0 W/m 3,2 km/h (1 Bft) 97,83 %
31.10.2021 03:24 10,0 C 9,4 C 9,5 C 97 % 1007,8 hPa 0,0 l/m 0 min 0 min 0 W/m 3,2 km/h (1 Bft) 97,87 %
31.10.2021 03:26 10,0 C 9,4 C 9,5 C 97 % 1007,7 hPa 0,0 l/m 0 min 0 min 0 W/m 3,2 km/h (1 Bft) 97,87 %
31.10.2021 03:28 10,0 C 9,4 C 9,5 C 97 % 1007,8 hPa 0,0 l/m 0 min 0 min 0 W/m 0,0 km/h (0 Bft) 97,87 %
31.10.2021 03:30 10,0 C 9,4 C 9,5 C 97 % 1007,7 hPa 0,0 l/m 0 min 0 min 0 W/m 3,2 km/h (1 Bft) 97,87 %
31.10.2021 03:32 10,0 C 9,4 C 9,5 C 97 % 1007,8 hPa 0,0 l/m 0 min 0 min 0 W/m 3,2 km/h (1 Bft) 100,00 %
31.10.2021 03:34 10,0 C 9,4 C 9,5 C 97 % 1007,8 hPa 0,0 l/m 0 min 0 min 0 W/m 3,2 km/h (1 Bft) 100,00 %
31.10.2021 03:36 10,0 C 9,4 C 9,5 C 97 % 1007,8 hPa 0,0 l/m 0 min 0 min 0 W/m 3,2 km/h (1 Bft) 100,00 %
31.10.2021 03:38 10,0 C 9,4 C 9,5 C 97 % 1007,8 hPa 0,0 l/m 0 min 0 min 0 W/m 3,2 km/h (1 Bft) 100,00 %
31.10.2021 03:40 10,0 C 9,4 C 9,5 C 97 % 1007,7 hPa 0,0 l/m 0 min 0 min 0 W/m 0,0 km/h (0 Bft) 100,00 %
31.10.2021 03:42 10,0 C 9,4 C 9,5 C 97 % 1007,7 hPa 0,0 l/m 0 min 0 min 0 W/m 0,0 km/h (0 Bft) 100,00 %
31.10.2021 03:44 10,0 C 9,4 C 9,5 C 97 % 1007,8 hPa 0,0 l/m 0 min 0 min 0 W/m 3,2 km/h (1 Bft) 100,00 %
31.10.2021 03:46 10,0 C 9,4 C 9,5 C 97 % 1007,7 hPa 0,0 l/m 0 min 0 min 0 W/m 3,2 km/h (1 Bft) 100,00 %
31.10.2021 03:48 10,0 C 9,4 C 9,5 C 97 % 1007,8 hPa 0,0 l/m 0 min 0 min 0 W/m 0,0 km/h (0 Bft) 100,00 %
31.10.2021 03:50 10,0 C 9,4 C 9,5 C 97 % 1007,8 hPa 0,0 l/m 0 min 0 min 0 W/m 0,0 km/h (0 Bft) 100,00 %
31.10.2021 03:52 9,9 C 9,4 C 9,5 C 97 % 1007,7 hPa 0,0 l/m 0 min 0 min 0 W/m 0,0 km/h (0 Bft) 97,87 %
31.10.2021 03:54 9,9 C 9,4 C 9,5 C 97 % 1007,7 hPa 0,0 l/m 0 min 0 min 0 W/m 0,0 km/h (0 Bft) 100,00 %
31.10.2021 03:56 9,9 C 9,4 C 9,5 C 97 % 1007,8 hPa 0,0 l/m 0 min 0 min 0 W/m 3,2 km/h (1 Bft) 100,00 %
31.10.2021 03:58 9,9 C 9,4 C 9,5 C 97 % 1007,8 hPa 0,0 l/m 0 min 0 min 0 W/m 3,2 km/h (1 Bft) 97,83 %
31.10.2021 04:00 9,9 C 9,4 C 9,5 C 97 % 1007,9 hPa 0,0 l/m 0 min 0 min 0 W/m 6,4 km/h (2 Bft) 100,00 %
31.10.2021 04:02 10,0 C 9,4 C 9,5 C 97 % 1007,8 hPa 0,0 l/m 0 min 0 min 0 W/m 3,2 km/h (1 Bft) 100,00 %
31.10.2021 04:04 9,9 C 9,4 C 9,5 C 97 % 1007,7 hPa 0,0 l/m 0 min 0 min 0 W/m 3,2 km/h (1 Bft) 95,74 %
31.10.2021 04:06 10,0 C 9,4 C 9,5 C 97 % 1007,7 hPa 0,0 l/m 0 min 0 min 0 W/m 3,2 km/h (1 Bft) 97,87 %
31.10.2021 04:08 10,0 C 9,4 C 9,5 C 97 % 1007,7 hPa 0,0 l/m 0 min 0 min 0 W/m 3,2 km/h (1 Bft) 97,87 %
31.10.2021 04:10 10,0 C 9,4 C 9,5 C 97 % 1007,6 hPa 0,0 l/m 0 min 0 min 0 W/m 3,2 km/h (1 Bft) 97,83 %
31.10.2021 04:12 10,0 C 9,4 C 9,5 C 97 % 1007,6 hPa 0,0 l/m 0 min 0 min 0 W/m 3,2 km/h (1 Bft) 97,87 %
31.10.2021 04:14 10,0 C 9,4 C 9,5 C 97 % 1007,7 hPa 0,0 l/m 0 min 0 min 0 W/m 6,4 km/h (2 Bft) 97,87 %
31.10.2021 04:16 10,0 C 9,4 C 9,5 C 97 % 1007,7 hPa 0,0 l/m 0 min 0 min 0 W/m 6,4 km/h (2 Bft) 97,87 %
31.10.2021 04:18 10,0 C 9,4 C 9,5 C 97 % 1007,7 hPa 0,0 l/m 0 min 0 min 0 W/m 3,2 km/h (1 Bft) 97,87 %
31.10.2021 04:20 10,0 C 9,4 C 9,5 C 97 % 1007,6 hPa 0,0 l/m 0 min 0 min 0 W/m 6,4 km/h (2 Bft) 95,74 %
31.10.2021 04:22 10,0 C 9,4 C 9,5 C 97 % 1007,6 hPa 0,0 l/m 0 min 0 min 0 W/m 3,2 km/h (1 Bft) 97,83 %
31.10.2021 04:24 10,0 C 9,4 C 9,5 C 97 % 1007,6 hPa 0,0 l/m 0 min 0 min 0 W/m 6,4 km/h (2 Bft) 97,87 %
31.10.2021 04:26 10,0 C 9,4 C 9,5 C 97 % 1007,6 hPa 0,0 l/m 0 min 0 min 0 W/m 6,4 km/h (2 Bft) 97,87 %
31.10.2021 04:28 10,0 C 9,4 C 9,5 C 97 % 1007,6 hPa 0,0 l/m 0 min 0 min 0 W/m 3,2 km/h (1 Bft) 97,87 %
31.10.2021 04:30 10,0 C 9,4 C 9,5 C 97 % 1007,5 hPa 0,0 l/m 0 min 0 min 0 W/m 3,2 km/h (1 Bft) 95,74 %
31.10.2021 04:32 10,0 C 9,4 C 9,5 C 97 % 1007,5 hPa 0,0 l/m 0 min 0 min 0 W/m 3,2 km/h (1 Bft) 97,87 %
31.10.2021 04:34 10,0 C 9,4 C 9,5 C 97 % 1007,6 hPa 0,0 l/m 0 min 0 min 0 W/m 3,2 km/h (1 Bft) 93,48 %
31.10.2021 04:36 10,0 C 9,4 C 9,5 C 97 % 1007,7 hPa 0,0 l/m 0 min 0 min 0 W/m 3,2 km/h (1 Bft) 95,74 %
31.10.2021 04:38 10,0 C 9,4 C 9,5 C 97 % 1007,6 hPa 0,0 l/m 0 min 0 min 0 W/m 3,2 km/h (1 Bft) 94,92 %
31.10.2021 04:40 10,0 C 9,4 C 9,5 C 97 % 1007,6 hPa 0,0 l/m 0 min 0 min 0 W/m 3,2 km/h (1 Bft) 97,14 %
31.10.2021 04:42 10,0 C 9,4 C 9,5 C 97 % 1007,6 hPa 0,0 l/m 0 min 0 min 0 W/m 6,4 km/h (2 Bft) 93,62 %
31.10.2021 04:44 10,0 C 9,4 C 9,5 C 97 % 1007,6 hPa 0,0 l/m 0 min 0 min 0 W/m 3,2 km/h (1 Bft) 93,62 %
31.10.2021 04:46 10,0 C 9,4 C 9,5 C 97 % 1007,6 hPa 0,0 l/m 0 min 0 min 0 W/m 6,4 km/h (2 Bft) 95,65 %
31.10.2021 04:48 10,0 C 9,4 C 9,5 C 97 % 1007,6 hPa 0,0 l/m 0 min 0 min 0 W/m 6,4 km/h (2 Bft) 97,87 %
31.10.2021 04:50 10,0 C 9,4 C 9,5 C 97 % 1007,6 hPa 0,0 l/m 0 min 0 min 0 W/m 3,2 km/h (1 Bft) 97,87 %
31.10.2021 04:52 10,0 C 9,4 C 9,5 C 97 % 1007,7 hPa 0,0 l/m 0 min 0 min 0 W/m 6,4 km/h (2 Bft) 97,87 %
31.10.2021 04:54 10,0 C 9,4 C 9,5 C 97 % 1007,6 hPa 0,0 l/m 0 min 0 min 0 W/m 3,2 km/h (1 Bft) 97,87 %
31.10.2021 04:56 10,0 C 9,4 C 9,5 C 97 % 1007,7 hPa 0,0 l/m 0 min 0 min 0 W/m 3,2 km/h (1 Bft) 93,62 %
31.10.2021 04:58 10,0 C 9,4 C 9,5 C 97 % 1007,6 hPa 0,0 l/m 0 min 0 min 0 W/m 3,2 km/h (1 Bft) 95,65 %
31.10.2021 05:00 10,0 C 9,4 C 9,5 C 97 % 1007,6 hPa 0,0 l/m 0 min 0 min 0 W/m 6,4 km/h (2 Bft) 93,62 %
31.10.2021 05:02 10,0 C 9,4 C 9,5 C 97 % 1007,6 hPa 0,0 l/m 0 min 0 min 0 W/m 3,2 km/h (1 Bft) 95,74 %
31.10.2021 05:04 10,0 C 9,4 C 9,5 C 97 % 1007,6 hPa 0,0 l/m 0 min 0 min 0 W/m 3,2 km/h (1 Bft) 95,24 %
31.10.2021 05:06 10,0 C 9,4 C 9,5 C 97 % 1007,6 hPa 0,0 l/m 0 min 0 min 0 W/m 3,2 km/h (1 Bft) 95,65 %
31.10.2021 05:08 10,0 C 9,4 C 9,5 C 97 % 1007,6 hPa 0,0 l/m 0 min 0 min 0 W/m 3,2 km/h (1 Bft) 91,49 %
31.10.2021 05:10 10,0 C 9,4 C 9,5 C 97 % 1007,6 hPa 0,2 l/m 0 min 0 min 0 W/m 3,2 km/h (1 Bft) 95,74 %
31.10.2021 05:12 10,0 C 9,4 C 9,5 C 97 % 1007,6 hPa 0,0 l/m 0 min 0 min 0 W/m 6,4 km/h (2 Bft) 95,74 %
31.10.2021 05:14 10,0 C 9,4 C 9,5 C 97 % 1007,5 hPa 0,0 l/m 0 min 0 min 0 W/m 3,2 km/h (1 Bft) 95,74 %
31.10.2021 05:16 10,0 C 9,4 C 9,5 C 97 % 1007,5 hPa 0,0 l/m 0 min 0 min 0 W/m 6,4 km/h (2 Bft) 93,62 %
31.10.2021 05:18 10,0 C 9,4 C 9,5 C 97 % 1007,5 hPa 0,0 l/m 0 min 0 min 0 W/m 3,2 km/h (1 Bft) 93,48 %
31.10.2021 05:20 10,0 C 9,4 C 9,5 C 97 % 1007,5 hPa 0,0 l/m 0 min 0 min 0 W/m 3,2 km/h (1 Bft) 91,49 %
31.10.2021 05:22 10,0 C 9,4 C 9,5 C 97 % 1007,5 hPa 0,0 l/m 0 min 0 min 0 W/m 3,2 km/h (1 Bft) 95,74 %
31.10.2021 05:24 10,0 C 9,4 C 9,5 C 97 % 1007,5 hPa 0,0 l/m 0 min 0 min 0 W/m 3,2 km/h (1 Bft) 97,87 %
31.10.2021 05:26 10,0 C 9,4 C 9,5 C 97 % 1007,5 hPa 0,0 l/m 0 min 0 min 0 W/m 3,2 km/h (1 Bft) 100,00 %
31.10.2021 05:28 10,0 C 9,4 C 9,5 C 97 % 1007,5 hPa 0,0 l/m 0 min 0 min 0 W/m 3,2 km/h (1 Bft) 97,87 %
31.10.2021 05:30 10,0 C 9,4 C 9,5 C 97 % 1007,4 hPa 0,0 l/m 0 min 0 min 0 W/m 0,0 km/h (0 Bft) 100,00 %
31.10.2021 05:32 10,0 C 9,4 C 9,5 C 97 % 1007,4 hPa 0,0 l/m 0 min 0 min 0 W/m 0,0 km/h (0 Bft) 100,00 %
31.10.2021 05:34 10,0 C 9,4 C 9,5 C 97 % 1007,3 hPa 0,0 l/m 0 min 0 min 0 W/m 3,2 km/h (1 Bft) 100,00 %
31.10.2021 05:36 10,0 C 9,4 C 9,5 C 97 % 1007,3 hPa 0,0 l/m 0 min 0 min 0 W/m 3,2 km/h (1 Bft) 97,87 %
31.10.2021 05:38 10,0 C 9,4 C 9,5 C 97 % 1007,3 hPa 0,0 l/m 0 min 0 min 0 W/m 6,4 km/h (2 Bft) 100,00 %
31.10.2021 05:40 10,0 C 9,4 C 9,5 C 97 % 1007,3 hPa 0,0 l/m 0 min 0 min 0 W/m 3,2 km/h (1 Bft) 100,00 %
31.10.2021 05:42 10,0 C 9,4 C 9,5 C 97 % 1007,3 hPa 0,0 l/m 0 min 0 min 0 W/m 3,2 km/h (1 Bft) 97,83 %
31.10.2021 05:44 10,0 C 9,4 C 9,5 C 97 % 1007,3 hPa 0,0 l/m 0 min 0 min 0 W/m 6,4 km/h (2 Bft) 100,00 %
31.10.2021 05:46 10,0 C 9,4 C 9,5 C 97 % 1007,4 hPa 0,0 l/m 0 min 0 min 0 W/m 3,2 km/h (1 Bft) 97,87 %
31.10.2021 05:48 9,9 C 9,4 C 9,5 C 97 % 1007,3 hPa 0,0 l/m 0 min 0 min 0 W/m 3,2 km/h (1 Bft) 100,00 %
31.10.2021 05:50 9,9 C 9,4 C 9,5 C 97 % 1007,3 hPa 0,0 l/m 0 min 0 min 0 W/m 3,2 km/h (1 Bft) 97,87 %
31.10.2021 05:52 9,9 C 9,4 C 9,5 C 97 % 1007,3 hPa 0,0 l/m 0 min 0 min 0 W/m 0,0 km/h (0 Bft) 100,00 %
31.10.2021 05:54 9,9 C 9,4 C 9,5 C 97 % 1007,4 hPa 0,0 l/m 0 min 0 min 0 W/m 3,2 km/h (1 Bft) 100,00 %
31.10.2021 05:56 9,9 C 9,4 C 9,5 C 97 % 1007,4 hPa 0,0 l/m 0 min 0 min 0 W/m 3,2 km/h (1 Bft) 100,00 %
31.10.2021 05:58 9,9 C 9,4 C 9,5 C 97 % 1007,3 hPa 0,0 l/m 0 min 0 min 0 W/m 3,2 km/h (1 Bft) 100,00 %
31.10.2021 06:00 9,9 C 8,9 C 9,5 C 97 % 1007,3 hPa 0,0 l/m 0 min 0 min 0 W/m 3,2 km/h (1 Bft) 97,87 %
31.10.2021 06:02 9,8 C 8,9 C 9,5 C 97 % 1007,3 hPa 0,0 l/m 0 min 0 min 0 W/m 3,2 km/h (1 Bft) 100,00 %
31.10.2021 06:04 9,8 C 8,9 C 9,5 C 97 % 1007,2 hPa 0,0 l/m 0 min 0 min 0 W/m 3,2 km/h (1 Bft) 97,92 %
31.10.2021 06:08 9,8 C 8,9 C 9,5 C 97 % 1007,2 hPa 0,0 l/m 0 min 0 min 0 W/m 3,2 km/h (1 Bft) 100,00 %
31.10.2021 06:10 9,8 C 8,9 C 9,5 C 97 % 1007,2 hPa 0,0 l/m 0 min 0 min 0 W/m 3,2 km/h (1 Bft) 100,00 %
31.10.2021 06:12 9,7 C 8,9 C 9,5 C 97 % 1007,2 hPa 0,0 l/m 0 min 0 min 0 W/m 3,2 km/h (1 Bft) 100,00 %
31.10.2021 06:14 9,7 C 8,9 C 9,5 C 97 % 1007,2 hPa 0,0 l/m 0 min 0 min 0 W/m 3,2 km/h (1 Bft) 100,00 %
31.10.2021 06:16 9,7 C 8,9 C 9,5 C 97 % 1007,2 hPa 0,0 l/m 0 min 0 min 0 W/m 0,0 km/h (0 Bft) 97,83 %
31.10.2021 06:18 9,7 C 8,9 C 9,5 C 97 % 1007,2 hPa 0,0 l/m 0 min 0 min 0 W/m 3,2 km/h (1 Bft) 100,00 %
31.10.2021 06:20 9,6 C 8,9 C 9,5 C 97 % 1007,1 hPa 0,0 l/m 0 min 0 min 0 W/m 3,2 km/h (1 Bft) 100,00 %
31.10.2021 06:22 9,6 C 8,9 C 9,5 C 97 % 1007,1 hPa 0,0 l/m 0 min 0 min 0 W/m 3,2 km/h (1 Bft) 37,50 %
31.10.2021 06:24 9,6 C 8,9 C 9,5 C 97 % 1007,1 hPa 0,0 l/m 0 min 0 min 0 W/m 3,2 km/h (1 Bft) 97,87 %
31.10.2021 06:26 9,6 C 8,9 C 9,5 C 97 % 1007,1 hPa 0,0 l/m 0 min 0 min 0 W/m 3,2 km/h (1 Bft) 100,00 %
31.10.2021 06:28 9,6 C 8,9 C 9,5 C 97 % 1007,1 hPa 0,0 l/m 0 min 0 min 0 W/m 3,2 km/h (1 Bft) 100,00 %
31.10.2021 06:30 9,6 C 8,9 C 9,5 C 97 % 1007,1 hPa 0,0 l/m 0 min 0 min 0 W/m 3,2 km/h (1 Bft) 97,87 %
31.10.2021 06:32 9,6 C 8,9 C 9,5 C 97 % 1007,1 hPa 0,0 l/m 0 min 0 min 0 W/m 3,2 km/h (1 Bft) 97,87 %
31.10.2021 06:34 9,6 C 8,9 C 9,5 C 97 % 1007,1 hPa 0,0 l/m 0 min 0 min 0 W/m 3,2 km/h (1 Bft) 95,74 %
31.10.2021 06:36 9,5 C 8,9 C 9,5 C 97 % 1007,0 hPa 0,0 l/m 0 min 0 min 0 W/m 3,2 km/h (1 Bft) 97,87 %
31.10.2021 06:38 9,5 C 8,9 C 9,5 C 97 % 1007,0 hPa 0,0 l/m 0 min 0 min 0 W/m 6,4 km/h (2 Bft) 97,87 %
31.10.2021 06:40 9,5 C 8,9 C 9,5 C 97 % 1007,0 hPa 0,0 l/m 0 min 0 min 0 W/m 6,4 km/h (2 Bft) 97,83 %
31.10.2021 06:42 9,5 C 8,9 C 9,5 C 97 % 1007,0 hPa 0,0 l/m 0 min 0 min 0 W/m 3,2 km/h (1 Bft) 95,74 %
31.10.2021 06:44 9,5 C 8,9 C 9,5 C 97 % 1007,0 hPa 0,0 l/m 0 min 0 min 0 W/m 6,4 km/h (2 Bft) 93,62 %
31.10.2021 06:46 9,5 C 8,9 C 8,9 C 97 % 1006,9 hPa 0,0 l/m 0 min 0 min 0 W/m 3,2 km/h (1 Bft) 95,74 %
31.10.2021 06:48 9,5 C 8,9 C 8,9 C 97 % 1006,9 hPa 0,0 l/m 0 min 0 min 0 W/m 6,4 km/h (2 Bft) 93,62 %
31.10.2021 06:50 9,5 C 8,9 C 9,5 C 97 % 1006,8 hPa 0,0 l/m 0 min 0 min 0 W/m 6,4 km/h (2 Bft) 95,74 %
31.10.2021 06:52 9,5 C 8,9 C 8,9 C 97 % 1006,8 hPa 0,0 l/m 0 min 0 min 0 W/m 3,2 km/h (1 Bft) 93,48 %
31.10.2021 06:54 9,5 C 8,9 C 8,9 C 97 % 1006,8 hPa 0,0 l/m 0 min 0 min 0 W/m 3,2 km/h (1 Bft) 95,74 %
31.10.2021 06:56 9,5 C 8,9 C 9,5 C 97 % 1006,8 hPa 0,0 l/m 0 min 0 min 0 W/m 6,4 km/h (2 Bft) 93,62 %
31.10.2021 06:58 9,5 C 8,9 C 9,5 C 97 % 1006,8 hPa 0,0 l/m 0 min 0 min 0 W/m 3,2 km/h (1 Bft) 95,74 %
31.10.2021 07:00 9,5 C 8,9 C 9,5 C 97 % 1006,8 hPa 0,0 l/m 0 min 0 min 0 W/m 3,2 km/h (1 Bft) 95,74 %
31.10.2021 07:02 9,5 C 8,9 C 8,9 C 97 % 1006,7 hPa 0,0 l/m 0 min 0 min 0 W/m 3,2 km/h (1 Bft) 95,74 %
31.10.2021 07:04 9,5 C 8,9 C 9,5 C 97 % 1006,7 hPa 0,0 l/m 0 min 0 min 0 W/m 3,2 km/h (1 Bft) 93,48 %
31.10.2021 07:06 9,4 C 8,9 C 9,5 C 97 % 1006,7 hPa 0,0 l/m 0 min 0 min 0 W/m 6,4 km/h (2 Bft) 95,74 %
31.10.2021 07:08 9,4 C 8,9 C 8,9 C 97 % 1006,8 hPa 0,0 l/m 0 min 0 min 0 W/m 3,2 km/h (1 Bft) 95,74 %
31.10.2021 07:10 9,4 C 8,9 C 9,5 C 97 % 1006,8 hPa 0,0 l/m 0 min 0 min 0 W/m 6,4 km/h (2 Bft) 97,87 %
31.10.2021 07:12 9,4 C 8,9 C 8,9 C 97 % 1006,8 hPa 0,0 l/m 0 min 0 min 0 W/m 3,2 km/h (1 Bft) 95,74 %
31.10.2021 07:14 9,4 C 8,9 C 8,9 C 97 % 1006,7 hPa 0,0 l/m 0 min 0 min 0 W/m 3,2 km/h (1 Bft) 100,00 %
31.10.2021 07:16 9,4 C 8,9 C 8,9 C 97 % 1006,7 hPa 0,0 l/m 0 min 0 min 0 W/m 6,4 km/h (2 Bft) 100,00 %
31.10.2021 07:18 9,4 C 8,9 C 8,9 C 97 % 1006,7 hPa 0,0 l/m 0 min 0 min 0 W/m 3,2 km/h (1 Bft) 100,00 %
31.10.2021 07:20 9,4 C 8,9 C 9,5 C 97 % 1006,7 hPa 0,0 l/m 0 min 0 min 0 W/m 3,2 km/h (1 Bft) 100,00 %
31.10.2021 07:22 9,4 C 8,9 C 8,9 C 97 % 1006,7 hPa 0,0 l/m 0 min 0 min 0 W/m 3,2 km/h (1 Bft) 100,00 %
31.10.2021 07:24 9,4 C 8,9 C 8,9 C 97 % 1006,7 hPa 0,0 l/m 0 min 0 min 0 W/m 3,2 km/h (1 Bft) 100,00 %
31.10.2021 07:26 9,4 C 8,9 C 9,5 C 97 % 1006,7 hPa 0,0 l/m 0 min 0 min 0 W/m 3,2 km/h (1 Bft) 97,87 %
31.10.2021 07:28 9,4 C 8,9 C 9,5 C 97 % 1006,6 hPa 0,0 l/m 0 min 0 min 0 W/m 3,2 km/h (1 Bft) 97,83 %
31.10.2021 07:30 9,4 C 8,9 C 9,5 C 97 % 1006,6 hPa 0,0 l/m 0 min 0 min 0 W/m 3,2 km/h (1 Bft) 100,00 %
31.10.2021 07:32 9,4 C 8,9 C 8,9 C 97 % 1006,7 hPa 0,0 l/m 0 min 0 min 0 W/m 3,2 km/h (1 Bft) 100,00 %
31.10.2021 07:34 9,4 C 8,9 C 9,5 C 97 % 1006,6 hPa 0,0 l/m 0 min 0 min 5 W/m 3,2 km/h (1 Bft) 100,00 %
31.10.2021 07:36 9,4 C 8,9 C 9,5 C 97 % 1006,6 hPa 0,0 l/m 0 min 0 min 5 W/m 3,2 km/h (1 Bft) 97,87 %
31.10.2021 07:38 9,4 C 8,9 C 8,9 C 97 % 1006,5 hPa 0,0 l/m 0 min 0 min 8 W/m 3,2 km/h (1 Bft) 100,00 %
31.10.2021 07:40 9,4 C 8,9 C 8,9 C 97 % 1006,4 hPa 0,0 l/m 0 min 0 min 9 W/m 3,2 km/h (1 Bft) 97,83 %
31.10.2021 07:42 9,4 C 8,9 C 8,9 C 97 % 1006,3 hPa 0,0 l/m 0 min 0 min 11 W/m 3,2 km/h (1 Bft) 97,87 %
31.10.2021 07:44 9,4 C 8,9 C 8,9 C 97 % 1006,3 hPa 0,0 l/m 0 min 0 min 13 W/m 3,2 km/h (1 Bft) 97,87 %
31.10.2021 07:46 9,3 C 8,9 C 8,9 C 97 % 1006,3 hPa 0,0 l/m 0 min 0 min 14 W/m 6,4 km/h (2 Bft) 95,74 %
31.10.2021 07:48 9,3 C 8,9 C 8,9 C 97 % 1006,3 hPa 0,0 l/m 0 min 0 min 16 W/m 3,2 km/h (1 Bft) 97,87 %
31.10.2021 07:50 9,3 C 8,9 C 9,5 C 97 % 1006,4 hPa 0,0 l/m 0 min 0 min 18 W/m 12,9 km/h (3 Bft) 97,87 %
31.10.2021 07:52 9,3 C 8,9 C 9,5 C 97 % 1006,4 hPa 0,0 l/m 0 min 0 min 19 W/m 12,9 km/h (3 Bft) 95,65 %
31.10.2021 07:54 9,4 C 8,9 C 9,5 C 97 % 1006,4 hPa 0,0 l/m 0 min 0 min 21 W/m 6,4 km/h (2 Bft) 97,87 %
31.10.2021 07:56 9,4 C 8,9 C 9,5 C 97 % 1006,3 hPa 0,0 l/m 0 min 0 min 24 W/m 3,2 km/h (1 Bft) 95,74 %
31.10.2021 07:58 9,4 C 8,9 C 9,5 C 97 % 1006,2 hPa 0,0 l/m 0 min 0 min 26 W/m 6,4 km/h (2 Bft) 97,87 %
31.10.2021 08:00 9,4 C 8,9 C 9,5 C 97 % 1006,2 hPa 0,0 l/m 0 min 0 min 27 W/m 6,4 km/h (2 Bft) 97,87 %
31.10.2021 08:02 9,4 C 8,9 C 9,5 C 97 % 1006,2 hPa 0,0 l/m 0 min 0 min 28 W/m 6,4 km/h (2 Bft) 97,87 %
31.10.2021 08:04 9,4 C 8,9 C 9,5 C 97 % 1006,2 hPa 0,0 l/m 0 min 0 min 30 W/m 12,9 km/h (3 Bft) 97,83 %
31.10.2021 08:06 9,4 C 9,4 C 9,5 C 97 % 1006,2 hPa 0,0 l/m 0 min 0 min 30 W/m 6,4 km/h (2 Bft) 97,87 %
31.10.2021 08:08 9,4 C 8,9 C 9,5 C 97 % 1006,1 hPa 0,0 l/m 0 min 0 min 32 W/m 6,4 km/h (2 Bft) 97,87 %
31.10.2021 08:10 9,4 C 9,4 C 9,5 C 97 % 1006,1 hPa 0,0 l/m 0 min 0 min 32 W/m 6,4 km/h (2 Bft) 97,87 %
31.10.2021 08:12 9,5 C 9,4 C 9,5 C 97 % 1006,1 hPa 0,0 l/m 0 min 0 min 33 W/m 6,4 km/h (2 Bft) 95,74 %
31.10.2021 08:14 9,5 C 9,4 C 9,5 C 97 % 1006,1 hPa 0,0 l/m 0 min 0 min 35 W/m 6,4 km/h (2 Bft) 97,87 %
31.10.2021 08:16 9,5 C 9,4 C 9,5 C 97 % 1006,1 hPa 0,0 l/m 0 min 0 min 35 W/m 6,4 km/h (2 Bft) 97,83 %
31.10.2021 08:18 9,5 C 9,4 C 9,5 C 97 % 1006,1 hPa 0,0 l/m 0 min 0 min 38 W/m 12,9 km/h (3 Bft) 97,87 %
31.10.2021 08:20 9,5 C 9,4 C 9,5 C 97 % 1006,1 hPa 0,0 l/m 0 min 0 min 39 W/m 12,9 km/h (3 Bft) 93,62 %
31.10.2021 08:22 9,5 C 9,4 C 9,5 C 97 % 1006,1 hPa 0,0 l/m 0 min 0 min 35 W/m 9,7 km/h (2 Bft) 97,87 %
31.10.2021 08:24 9,6 C 9,4 C 9,5 C 97 % 1006,1 hPa 0,0 l/m 0 min 0 min 35 W/m 12,9 km/h (3 Bft) 97,87 %
31.10.2021 08:26 9,6 C 9,4 C 9,5 C 97 % 1006,0 hPa 0,0 l/m 0 min 0 min 35 W/m 9,7 km/h (2 Bft) 97,83 %
31.10.2021 08:28 9,6 C 9,4 C 9,5 C 97 % 1006,1 hPa 0,0 l/m 0 min 0 min 36 W/m 12,9 km/h (3 Bft) 95,74 %
31.10.2021 08:30 9,6 C 9,4 C 9,5 C 97 % 1006,1 hPa 0,0 l/m 0 min 0 min 37 W/m 6,4 km/h (2 Bft) 95,74 %
31.10.2021 08:32 9,6 C 9,4 C 9,5 C 97 % 1006,1 hPa 0,0 l/m 0 min 0 min 37 W/m 12,9 km/h (3 Bft) 100,00 %
31.10.2021 08:34 9,6 C 9,4 C 9,5 C 97 % 1006,1 hPa 0,0 l/m 0 min 0 min 37 W/m 12,9 km/h (3 Bft) 100,00 %
31.10.2021 08:36 9,7 C 9,4 C 9,5 C 97 % 1006,0 hPa 0,0 l/m 0 min 0 min 38 W/m 9,7 km/h (2 Bft) 95,74 %
31.10.2021 08:38 9,7 C 9,4 C 9,5 C 97 % 1006,1 hPa 0,0 l/m 0 min 0 min 39 W/m 6,4 km/h (2 Bft) 97,87 %
31.10.2021 08:40 9,7 C 9,4 C 9,5 C 97 % 1006,0 hPa 0,0 l/m 0 min 0 min 42 W/m 12,9 km/h (3 Bft) 97,83 %
31.10.2021 08:42 9,7 C 9,4 C 9,5 C 97 % 1005,9 hPa 0,0 l/m 0 min 0 min 46 W/m 12,9 km/h (3 Bft) 95,74 %
31.10.2021 08:44 9,7 C 9,4 C 9,5 C 97 % 1005,9 hPa 0,0 l/m 0 min 0 min 46 W/m 12,9 km/h (3 Bft) 97,87 %
31.10.2021 08:46 9,7 C 9,4 C 9,5 C 97 % 1005,8 hPa 0,0 l/m 0 min 0 min 48 W/m 12,9 km/h (3 Bft) 97,87 %
31.10.2021 08:48 9,7 C 9,4 C 9,5 C 97 % 1005,9 hPa 0,0 l/m 0 min 0 min 51 W/m 12,9 km/h (3 Bft) 97,87 %
31.10.2021 08:50 9,7 C 9,4 C 9,5 C 97 % 1006,0 hPa 0,0 l/m 0 min 0 min 54 W/m 16,1 km/h (3 Bft) 97,83 %
31.10.2021 08:52 9,7 C 9,4 C 9,5 C 97 % 1005,9 hPa 0,0 l/m 0 min 0 min 58 W/m 6,4 km/h (2 Bft) 95,74 %
31.10.2021 08:54 9,8 C 9,4 C 9,5 C 97 % 1005,9 hPa 0,0 l/m 0 min 0 min 62 W/m 16,1 km/h (3 Bft) 97,87 %
31.10.2021 08:56 9,8 C 9,4 C 9,5 C 97 % 1005,9 hPa 0,0 l/m 0 min 0 min 66 W/m 12,9 km/h (3 Bft) 95,74 %
31.10.2021 08:58 9,8 C 9,4 C 9,5 C 97 % 1005,8 hPa 0,0 l/m 0 min 0 min 69 W/m 6,4 km/h (2 Bft) 97,87 %
31.10.2021 09:00 9,8 C 10,0 C 10,0 C 97 % 1005,8 hPa 0,0 l/m 0 min 0 min 72 W/m 6,4 km/h (2 Bft) 97,87 %
31.10.2021 09:02 9,8 C 10,0 C 10,0 C 97 % 1005,8 hPa 0,0 l/m 0 min 0 min 75 W/m 9,7 km/h (2 Bft) 93,48 %
31.10.2021 09:04 9,8 C 10,0 C 10,0 C 97 % 1005,7 hPa 0,0 l/m 0 min 0 min 77 W/m 6,4 km/h (2 Bft) 95,74 %
31.10.2021 09:06 9,8 C 10,0 C 10,0 C 97 % 1005,7 hPa 0,0 l/m 0 min 0 min 81 W/m 12,9 km/h (3 Bft) 93,62 %
31.10.2021 09:08 9,9 C 10,0 C 10,0 C 97 % 1005,8 hPa 0,0 l/m 0 min 0 min 85 W/m 16,1 km/h (3 Bft) 97,87 %
31.10.2021 09:10 9,9 C 10,0 C 10,0 C 97 % 1005,8 hPa 0,0 l/m 0 min 0 min 95 W/m 12,9 km/h (3 Bft) 98,00 %
31.10.2021 09:12 9,9 C 10,0 C 10,0 C 97 % 1005,8 hPa 0,0 l/m 2 min 0 min 117 W/m 19,3 km/h (3 Bft) 97,87 %
31.10.2021 09:14 10,0 C 10,0 C 10,0 C 97 % 1005,9 hPa 0,0 l/m 0 min 0 min 108 W/m 12,9 km/h (3 Bft) 97,83 %
31.10.2021 09:16 10,0 C 10,0 C 10,0 C 97 % 1005,9 hPa 0,0 l/m 0 min 0 min 113 W/m 6,4 km/h (2 Bft) 97,87 %
31.10.2021 09:18 10,0 C 10,6 C 10,0 C 97 % 1005,8 hPa 0,0 l/m 2 min 0 min 120 W/m 6,4 km/h (2 Bft) 97,87 %
31.10.2021 09:20 10,0 C 10,6 C 10,0 C 97 % 1005,9 hPa 0,0 l/m 0 min 0 min 89 W/m 6,4 km/h (2 Bft) 97,87 %
31.10.2021 09:22 10,1 C 10,6 C 10,0 C 97 % 1005,8 hPa 0,0 l/m 0 min 0 min 87 W/m 12,9 km/h (3 Bft) 97,87 %
31.10.2021 09:24 10,1 C 10,6 C 10,0 C 97 % 1005,8 hPa 0,0 l/m 0 min 0 min 95 W/m 16,1 km/h (3 Bft) 100,00 %
31.10.2021 09:26 10,1 C 10,6 C 10,0 C 97 % 1005,7 hPa 0,0 l/m 0 min 0 min 103 W/m 12,9 km/h (3 Bft) 93,48 %
31.10.2021 09:28 10,2 C 10,6 C 10,6 C 97 % 1005,7 hPa 0,0 l/m 0 min 0 min 122 W/m 16,1 km/h (3 Bft) 97,87 %
31.10.2021 09:30 10,2 C 11,1 C 10,6 C 97 % 1005,7 hPa 0,0 l/m 2 min 0 min 135 W/m 12,9 km/h (3 Bft) 97,87 %
31.10.2021 09:32 10,3 C 11,1 C 10,6 C 97 % 1005,7 hPa 0,0 l/m 2 min 0 min 142 W/m 9,7 km/h (2 Bft) 95,74 %
31.10.2021 09:34 10,4 C 11,7 C 10,6 C 97 % 1005,7 hPa 0,0 l/m 2 min 0 min 134 W/m 12,9 km/h (3 Bft) 97,87 %
31.10.2021 09:36 10,4 C 11,1 C 10,6 C 97 % 1005,7 hPa 0,0 l/m 0 min 0 min 134 W/m 16,1 km/h (3 Bft) 93,62 %
31.10.2021 09:38 10,4 C 11,1 C 10,6 C 97 % 1005,7 hPa 0,0 l/m 2 min 0 min 153 W/m 16,1 km/h (3 Bft) 95,65 %
31.10.2021 09:40 10,5 C 11,1 C 10,6 C 97 % 1005,6 hPa 0,0 l/m 2 min 0 min 156 W/m 12,9 km/h (3 Bft) 97,87 %
31.10.2021 09:42 10,5 C 11,1 C 10,6 C 97 % 1005,6 hPa 0,0 l/m 2 min 0 min 159 W/m 16,1 km/h (3 Bft) 95,74 %
31.10.2021 09:44 10,6 C 11,1 C 10,6 C 97 % 1005,7 hPa 0,0 l/m 2 min 0 min 170 W/m 9,7 km/h (2 Bft) 93,62 %
31.10.2021 09:46 10,7 C 11,1 C 10,6 C 97 % 1005,6 hPa 0,0 l/m 2 min 0 min 160 W/m 9,7 km/h (2 Bft) 100,00 %
31.10.2021 09:48 10,7 C 11,1 C 10,6 C 96 % 1005,6 hPa 0,0 l/m 0 min 0 min 144 W/m 16,1 km/h (3 Bft) 100,00 %
31.10.2021 09:50 10,8 C 11,7 C 11,1 C 96 % 1005,5 hPa 0,0 l/m 2 min 0 min 157 W/m 12,9 km/h (3 Bft) 100,00 %
31.10.2021 09:52 10,8 C 11,7 C 11,1 C 96 % 1005,6 hPa 0,0 l/m 2 min 0 min 174 W/m 19,3 km/h (3 Bft) 97,87 %
31.10.2021 09:54 10,9 C 11,7 C 11,1 C 96 % 1005,6 hPa 0,0 l/m 2 min 0 min 178 W/m 12,9 km/h (3 Bft) 100,00 %
31.10.2021 09:56 11,0 C 11,7 C 11,1 C 96 % 1005,5 hPa 0,0 l/m 2 min 0 min 164 W/m 16,1 km/h (3 Bft) 100,00 %
31.10.2021 09:58 11,0 C 12,2 C 11,1 C 96 % 1005,5 hPa 0,0 l/m 2 min 0 min 170 W/m 6,4 km/h (2 Bft) 100,00 %
31.10.2021 10:00 11,1 C 12,2 C 11,1 C 96 % 1005,4 hPa 0,0 l/m 2 min 0 min 166 W/m 16,1 km/h (3 Bft) 100,00 %
31.10.2021 10:02 11,1 C 12,2 C 11,1 C 96 % 1005,4 hPa 0,0 l/m 2 min 0 min 172 W/m 12,9 km/h (3 Bft) 100,00 %
31.10.2021 10:04 11,2 C 12,2 C 11,1 C 96 % 1005,3 hPa 0,0 l/m 2 min 0 min 168 W/m 12,9 km/h (3 Bft) 100,00 %
31.10.2021 10:06 11,3 C 12,2 C 11,1 C 95 % 1005,2 hPa 0,0 l/m 2 min 0 min 166 W/m 12,9 km/h (3 Bft) 100,00 %
31.10.2021 10:08 11,3 C 12,8 C 11,1 C 95 % 1005,1 hPa 0,0 l/m 2 min 0 min 181 W/m 16,1 km/h (3 Bft) 97,87 %
31.10.2021 10:10 11,4 C 12,8 C 11,1 C 95 % 1005,1 hPa 0,0 l/m 0 min 0 min 154 W/m 6,4 km/h (2 Bft) 100,00 %
31.10.2021 10:12 11,4 C 12,2 C 11,1 C 95 % 1005,1 hPa 0,0 l/m 0 min 0 min 142 W/m 12,9 km/h (3 Bft) 100,00 %
31.10.2021 10:14 11,4 C 12,2 C 11,1 C 95 % 1005,0 hPa 0,0 l/m 0 min 0 min 154 W/m 3,2 km/h (1 Bft) 100,00 %
31.10.2021 10:16 11,5 C 13,3 C 11,7 C 95 % 1005,0 hPa 0,0 l/m 2 min 0 min 202 W/m 6,4 km/h (2 Bft) 100,00 %
31.10.2021 10:18 11,5 C 14,4 C 11,7 C 95 % 1005,0 hPa 0,0 l/m 2 min 0 min 267 W/m 12,9 km/h (3 Bft) 100,00 %
31.10.2021 10:20 11,6 C 15,0 C 11,7 C 95 % 1005,0 hPa 0,0 l/m 2 min 0 min 280 W/m 12,9 km/h (3 Bft) 100,00 %
31.10.2021 10:22 11,8 C 15,6 C 11,7 C 95 % 1005,0 hPa 0,0 l/m 2 min 0 min 297 W/m 12,9 km/h (3 Bft) 100,00 %
31.10.2021 10:24 11,9 C 16,7 C 11,7 C 94 % 1005,0 hPa 0,0 l/m 2 min 0 min 314 W/m 12,9 km/h (3 Bft) 100,00 %
31.10.2021 10:26 12,0 C 17,2 C 12,3 C 94 % 1005,0 hPa 0,0 l/m 2 min 0 min 294 W/m 6,4 km/h (2 Bft) 100,00 %
31.10.2021 10:28 12,1 C 18,3 C 12,3 C 94 % 1005,0 hPa 0,0 l/m 2 min 0 min 352 W/m 6,4 km/h (2 Bft) 100,00 %
31.10.2021 10:30 12,2 C 20,0 C 12,3 C 94 % 1004,9 hPa 0,0 l/m 2 min 0 min 384 W/m 6,4 km/h (2 Bft) 97,87 %
31.10.2021 10:32 12,4 C 20,0 C 12,3 C 94 % 1004,8 hPa 0,0 l/m 2 min 0 min 387 W/m 12,9 km/h (3 Bft) 95,74 %
31.10.2021 10:34 12,6 C 20,0 C 12,8 C 94 % 1004,8 hPa 0,0 l/m 2 min 0 min 383 W/m 12,9 km/h (3 Bft) 97,87 %
31.10.2021 10:36 12,8 C 20,6 C 12,8 C 94 % 1004,8 hPa 0,0 l/m 2 min 0 min 371 W/m 6,4 km/h (2 Bft) 95,65 %
31.10.2021 10:38 12,9 C 20,6 C 12,8 C 93 % 1004,8 hPa 0,0 l/m 2 min 0 min 333 W/m 12,9 km/h (3 Bft) 95,74 %
31.10.2021 10:40 13,0 C 19,4 C 12,8 C 93 % 1004,7 hPa 0,0 l/m 2 min 0 min 285 W/m 12,9 km/h (3 Bft) 93,62 %
31.10.2021 10:42 13,2 C 18,3 C 12,8 C 93 % 1004,7 hPa 0,0 l/m 2 min 0 min 211 W/m 16,1 km/h (3 Bft) 93,62 %
31.10.2021 10:44 13,3 C 17,2 C 12,8 C 92 % 1004,7 hPa 0,0 l/m 2 min 0 min 197 W/m 12,9 km/h (3 Bft) 95,74 %
31.10.2021 10:46 13,4 C 16,7 C 12,8 C 91 % 1004,7 hPa 0,0 l/m 0 min 0 min 179 W/m 6,4 km/h (2 Bft) 91,49 %
31.10.2021 10:48 13,5 C 16,1 C 12,8 C 91 % 1004,6 hPa 0,0 l/m 0 min 0 min 164 W/m 6,4 km/h (2 Bft) 95,65 %
31.10.2021 10:50 13,5 C 15,6 C 12,8 C 90 % 1004,6 hPa 0,0 l/m 0 min 0 min 148 W/m 19,3 km/h (3 Bft) 95,74 %
31.10.2021 10:52 13,6 C 15,0 C 12,8 C 90 % 1004,6 hPa 0,0 l/m 0 min 0 min 134 W/m 16,1 km/h (3 Bft) 95,74 %
31.10.2021 10:54 13,6 C 14,4 C 12,8 C 90 % 1004,5 hPa 0,0 l/m 0 min 0 min 155 W/m 16,1 km/h (3 Bft) 95,74 %
31.10.2021 10:56 13,6 C 14,4 C 12,8 C 89 % 1004,5 hPa 0,0 l/m 0 min 0 min 157 W/m 12,9 km/h (3 Bft) 95,74 %
31.10.2021 10:58 13,7 C 14,4 C 12,8 C 89 % 1004,6 hPa 0,0 l/m 0 min 0 min 148 W/m 12,9 km/h (3 Bft) 95,65 %
31.10.2021 11:00 13,7 C 14,4 C 12,8 C 89 % 1004,5 hPa 0,0 l/m 0 min 0 min 140 W/m 16,1 km/h (3 Bft) 95,74 %
31.10.2021 11:02 13,8 C 15,0 C 12,8 C 89 % 1004,4 hPa 0,0 l/m 0 min 0 min 164 W/m 12,9 km/h (3 Bft) 93,62 %
31.10.2021 11:04 13,8 C 15,0 C 13,4 C 89 % 1004,3 hPa 0,0 l/m 0 min 0 min 174 W/m 16,1 km/h (3 Bft) 93,75 %
31.10.2021 11:06 13,9 C 15,0 C 13,4 C 89 % 1004,3 hPa 0,0 l/m 0 min 0 min 129 W/m 12,9 km/h (3 Bft) 91,49 %
31.10.2021 11:08 14,0 C 15,0 C 13,4 C 88 % 1004,3 hPa 0,0 l/m 0 min 0 min 128 W/m 12,9 km/h (3 Bft) 97,87 %
31.10.2021 11:10 14,0 C 14,4 C 13,4 C 88 % 1004,2 hPa 0,0 l/m 0 min 0 min 117 W/m 9,7 km/h (2 Bft) 97,87 %
31.10.2021 11:12 14,0 C 14,4 C 13,4 C 88 % 1004,1 hPa 0,0 l/m 0 min 0 min 116 W/m 19,3 km/h (3 Bft) 97,83 %
31.10.2021 11:14 14,1 C 14,4 C 13,4 C 88 % 1004,1 hPa 0,0 l/m 0 min 0 min 115 W/m 6,4 km/h (2 Bft) 97,87 %
31.10.2021 11:16 14,2 C 14,4 C 13,4 C 88 % 1004,1 hPa 0,0 l/m 0 min 0 min 114 W/m 19,3 km/h (3 Bft) 97,87 %
31.10.2021 11:18 14,2 C 14,4 C 13,4 C 88 % 1004,1 hPa 0,0 l/m 0 min 0 min 114 W/m 16,1 km/h (3 Bft) 97,87 %
31.10.2021 11:20 14,2 C 14,4 C 13,4 C 87 % 1004,1 hPa 0,0 l/m 0 min 0 min 114 W/m 12,9 km/h (3 Bft) 100,00 %
31.10.2021 11:22 14,2 C 14,4 C 13,4 C 87 % 1004,1 hPa 0,0 l/m 0 min 0 min 113 W/m 22,5 km/h (4 Bft) 100,00 %
31.10.2021 11:24 14,3 C 14,4 C 13,4 C 87 % 1004,0 hPa 0,0 l/m 0 min 0 min 118 W/m 12,9 km/h (3 Bft) 100,00 %
31.10.2021 11:26 14,4 C 14,4 C 13,4 C 87 % 1004,0 hPa 0,0 l/m 0 min 0 min 122 W/m 22,5 km/h (4 Bft) 95,74 %
31.10.2021 11:28 14,4 C 14,4 C 13,4 C 87 % 1004,0 hPa 0,0 l/m 0 min 0 min 126 W/m 16,1 km/h (3 Bft) 97,87 %
31.10.2021 11:30 14,4 C 14,4 C 13,4 C 87 % 1004,0 hPa 0,0 l/m 0 min 0 min 127 W/m 25,7 km/h (4 Bft) 100,00 %
31.10.2021 11:32 14,5 C 14,4 C 13,4 C 86 % 1003,9 hPa 0,0 l/m 0 min 0 min 127 W/m 19,3 km/h (3 Bft) 100,00 %
31.10.2021 11:34 14,5 C 14,4 C 13,4 C 86 % 1003,8 hPa 0,0 l/m 0 min 0 min 127 W/m 12,9 km/h (3 Bft) 100,00 %
31.10.2021 11:36 14,5 C 14,4 C 13,4 C 86 % 1003,8 hPa 0,0 l/m 0 min 0 min 123 W/m 19,3 km/h (3 Bft) 97,87 %
31.10.2021 11:38 14,5 C 14,4 C 13,4 C 86 % 1003,7 hPa 0,0 l/m 0 min 0 min 121 W/m 16,1 km/h (3 Bft) 100,00 %
31.10.2021 11:40 14,6 C 14,4 C 13,4 C 86 % 1003,7 hPa 0,0 l/m 0 min 0 min 121 W/m 19,3 km/h (3 Bft) 100,00 %
31.10.2021 11:42 14,6 C 14,4 C 13,4 C 86 % 1003,7 hPa 0,0 l/m 0 min 0 min 120 W/m 22,5 km/h (4 Bft) 100,00 %
31.10.2021 11:44 14,6 C 14,4 C 13,4 C 86 % 1003,7 hPa 0,0 l/m 0 min 0 min 117 W/m 25,7 km/h (4 Bft) 100,00 %
31.10.2021 11:46 14,6 C 14,4 C 13,4 C 86 % 1003,6 hPa 0,0 l/m 0 min 0 min 111 W/m 19,3 km/h (3 Bft) 100,00 %
31.10.2021 11:48 14,7 C 14,4 C 13,4 C 86 % 1003,6 hPa 0,0 l/m 0 min 0 min 104 W/m 16,1 km/h (3 Bft) 100,00 %
31.10.2021 11:50 14,7 C 14,4 C 13,4 C 86 % 1003,6 hPa 0,0 l/m 0 min 0 min 106 W/m 22,5 km/h (4 Bft) 97,87 %
31.10.2021 11:52 14,8 C 14,4 C 13,4 C 86 % 1003,6 hPa 0,0 l/m 0 min 0 min 108 W/m 12,9 km/h (3 Bft) 97,87 %
31.10.2021 11:54 14,8 C 15,0 C 13,4 C 86 % 1003,6 hPa 0,0 l/m 0 min 0 min 110 W/m 16,1 km/h (3 Bft) 100,00 %
31.10.2021 11:56 14,9 C 15,0 C 13,4 C 86 % 1003,6 hPa 0,0 l/m 0 min 0 min 109 W/m 16,1 km/h (3 Bft) 97,87 %
31.10.2021 11:58 14,9 C 15,0 C 13,4 C 86 % 1003,6 hPa 0,0 l/m 0 min 0 min 109 W/m 16,1 km/h (3 Bft) 97,83 %
31.10.2021 12:00 14,9 C 15,0 C 13,4 C 86 % 1003,5 hPa 0,0 l/m 0 min 0 min 114 W/m 22,5 km/h (4 Bft) 97,87 %
31.10.2021 12:02 14,9 C 14,4 C 13,4 C 86 % 1003,4 hPa 0,0 l/m 0 min 0 min 118 W/m 25,7 km/h (4 Bft) 100,00 %
31.10.2021 12:04 14,9 C 14,4 C 13,4 C 86 % 1003,4 hPa 0,0 l/m 0 min 0 min 120 W/m 19,3 km/h (3 Bft) 100,00 %
31.10.2021 12:08 14,9 C 15,0 C 13,4 C 86 % 1003,3 hPa 0,0 l/m 0 min 0 min 136 W/m 16,1 km/h (3 Bft) 98,94 %
31.10.2021 12:10 14,9 C 15,0 C 13,4 C 86 % 1003,3 hPa 0,0 l/m 0 min 0 min 160 W/m 19,3 km/h (3 Bft) 100,00 %
31.10.2021 12:12 15,0 C 15,0 C 13,4 C 86 % 1003,2 hPa 0,0 l/m 0 min 0 min 156 W/m 12,9 km/h (3 Bft) 97,87 %
31.10.2021 12:14 15,0 C 15,0 C 13,4 C 87 % 1003,2 hPa 0,0 l/m 0 min 0 min 153 W/m 16,1 km/h (3 Bft) 97,87 %
31.10.2021 12:16 15,0 C 15,0 C 13,4 C 87 % 1003,2 hPa 0,0 l/m 0 min 0 min 143 W/m 22,5 km/h (4 Bft) 97,87 %
31.10.2021 12:18 15,0 C 15,0 C 13,4 C 86 % 1003,1 hPa 0,0 l/m 0 min 0 min 141 W/m 12,9 km/h (3 Bft) 97,87 %
31.10.2021 12:20 15,0 C 15,0 C 13,4 C 86 % 1003,0 hPa 0,0 l/m 0 min 0 min 151 W/m 25,7 km/h (4 Bft) 95,74 %
31.10.2021 12:22 15,0 C 15,0 C 13,4 C 86 % 1003,1 hPa 0,0 l/m 0 min 0 min 165 W/m 16,1 km/h (3 Bft) 95,65 %
31.10.2021 12:24 15,0 C 15,0 C 13,4 C 86 % 1003,0 hPa 0,0 l/m 0 min 0 min 172 W/m 22,5 km/h (4 Bft) 97,87 %
31.10.2021 12:26 15,0 C 15,0 C 13,4 C 87 % 1003,0 hPa 0,0 l/m 0 min 0 min 175 W/m 12,9 km/h (3 Bft) 97,87 %
31.10.2021 12:28 15,0 C 15,0 C 13,4 C 87 % 1003,0 hPa 0,0 l/m 0 min 0 min 185 W/m 19,3 km/h (3 Bft) 97,87 %
31.10.2021 12:30 15,0 C 15,0 C 13,4 C 87 % 1002,9 hPa 0,0 l/m 0 min 0 min 201 W/m 22,5 km/h (4 Bft) 97,87 %
31.10.2021 12:32 15,0 C 15,0 C 13,4 C 87 % 1002,9 hPa 0,0 l/m 2 min 0 min 209 W/m 19,3 km/h (3 Bft) 97,87 %
31.10.2021 12:34 15,0 C 15,0 C 13,4 C 87 % 1002,8 hPa 0,0 l/m 2 min 0 min 222 W/m 16,1 km/h (3 Bft) 97,83 %
31.10.2021 12:36 15,0 C 15,0 C 13,4 C 87 % 1002,8 hPa 0,0 l/m 2 min 0 min 220 W/m 19,3 km/h (3 Bft) 93,62 %
31.10.2021 12:38 15,0 C 15,6 C 13,4 C 87 % 1002,7 hPa 0,0 l/m 2 min 0 min 231 W/m 16,1 km/h (3 Bft) 95,74 %
31.10.2021 12:40 15,1 C 15,6 C 13,4 C 87 % 1002,7 hPa 0,0 l/m 2 min 0 min 236 W/m 16,1 km/h (3 Bft) 95,74 %
31.10.2021 12:42 15,1 C 15,6 C 13,9 C 87 % 1002,7 hPa 0,0 l/m 2 min 0 min 239 W/m 12,9 km/h (3 Bft) 95,74 %
31.10.2021 12:44 15,2 C 16,1 C 13,9 C 87 % 1002,6 hPa 0,0 l/m 2 min 0 min 273 W/m 22,5 km/h (4 Bft) 95,74 %
31.10.2021 12:46 15,3 C 16,1 C 13,9 C 87 % 1002,5 hPa 0,0 l/m 2 min 0 min 272 W/m 12,9 km/h (3 Bft) 95,65 %
31.10.2021 12:48 15,3 C 16,1 C 13,9 C 87 % 1002,4 hPa 0,0 l/m 2 min 0 min 265 W/m 19,3 km/h (3 Bft) 93,62 %
31.10.2021 12:50 15,4 C 16,1 C 13,9 C 87 % 1002,4 hPa 0,0 l/m 2 min 0 min 247 W/m 19,3 km/h (3 Bft) 93,62 %
31.10.2021 12:52 15,4 C 16,7 C 13,9 C 87 % 1002,4 hPa 0,0 l/m 2 min 0 min 268 W/m 19,3 km/h (3 Bft) 95,74 %
31.10.2021 12:54 15,5 C 16,7 C 13,9 C 87 % 1002,2 hPa 0,0 l/m 2 min 0 min 237 W/m 16,1 km/h (3 Bft) 95,74 %
31.10.2021 12:56 15,5 C 16,1 C 13,9 C 87 % 1002,2 hPa 0,0 l/m 2 min 0 min 211 W/m 19,3 km/h (3 Bft) 97,83 %
31.10.2021 12:58 15,5 C 15,6 C 13,9 C 87 % 1002,2 hPa 0,0 l/m 0 min 0 min 191 W/m 16,1 km/h (3 Bft) 97,87 %
31.10.2021 13:00 15,5 C 15,6 C 13,9 C 87 % 1002,1 hPa 0,0 l/m 0 min 0 min 184 W/m 12,9 km/h (3 Bft) 97,87 %
31.10.2021 13:02 15,5 C 15,6 C 13,9 C 86 % 1002,1 hPa 0,0 l/m 0 min 0 min 185 W/m 16,1 km/h (3 Bft) 97,87 %
31.10.2021 13:04 15,5 C 15,6 C 13,9 C 87 % 1001,9 hPa 0,0 l/m 0 min 0 min 197 W/m 19,3 km/h (3 Bft) 95,74 %
31.10.2021 13:06 15,5 C 15,6 C 13,9 C 87 % 1001,9 hPa 0,0 l/m 0 min 0 min 191 W/m 19,3 km/h (3 Bft) 97,87 %
31.10.2021 13:08 15,5 C 15,6 C 13,9 C 87 % 1001,8 hPa 0,0 l/m 0 min 0 min 180 W/m 16,1 km/h (3 Bft) 95,74 %
31.10.2021 13:10 15,5 C 15,0 C 13,9 C 87 % 1001,8 hPa 0,0 l/m 0 min 0 min 192 W/m 22,5 km/h (4 Bft) 97,83 %
31.10.2021 13:12 15,5 C 15,6 C 13,9 C 87 % 1001,7 hPa 0,0 l/m 0 min 0 min 197 W/m 16,1 km/h (3 Bft) 95,74 %
31.10.2021 13:14 15,5 C 15,6 C 13,9 C 87 % 1001,7 hPa 0,0 l/m 2 min 0 min 224 W/m 19,3 km/h (3 Bft) 95,74 %
31.10.2021 13:16 15,5 C 15,6 C 13,9 C 87 % 1001,6 hPa 0,0 l/m 2 min 0 min 234 W/m 22,5 km/h (4 Bft) 95,74 %
31.10.2021 13:18 15,5 C 15,6 C 13,9 C 87 % 1001,6 hPa 0,0 l/m 2 min 0 min 244 W/m 22,5 km/h (4 Bft) 97,87 %
31.10.2021 13:20 15,5 C 15,6 C 13,9 C 87 % 1001,5 hPa 0,0 l/m 2 min 0 min 214 W/m 16,1 km/h (3 Bft) 97,83 %
31.10.2021 13:22 15,5 C 15,6 C 13,9 C 87 % 1001,4 hPa 0,0 l/m 2 min 0 min 196 W/m 19,3 km/h (3 Bft) 95,74 %
31.10.2021 13:24 15,5 C 15,6 C 13,9 C 87 % 1001,4 hPa 0,0 l/m 2 min 0 min 197 W/m 16,1 km/h (3 Bft) 95,74 %
31.10.2021 13:26 15,5 C 15,6 C 13,9 C 87 % 1001,4 hPa 0,0 l/m 2 min 0 min 232 W/m 16,1 km/h (3 Bft) 100,00 %
31.10.2021 13:28 15,5 C 15,6 C 13,9 C 87 % 1001,2 hPa 0,0 l/m 2 min 0 min 220 W/m 12,9 km/h (3 Bft) 97,87 %
31.10.2021 13:30 15,5 C 15,6 C 13,9 C 87 % 1001,2 hPa 0,0 l/m 2 min 0 min 222 W/m 12,9 km/h (3 Bft) 97,87 %
31.10.2021 13:32 15,6 C 15,6 C 13,9 C 87 % 1001,2 hPa 0,0 l/m 2 min 0 min 204 W/m 16,1 km/h (3 Bft) 97,87 %
31.10.2021 13:34 15,6 C 15,6 C 13,9 C 87 % 1001,2 hPa 0,0 l/m 2 min 0 min 201 W/m 12,9 km/h (3 Bft) 97,83 %
31.10.2021 13:36 15,6 C 15,6 C 13,9 C 87 % 1001,1 hPa 0,0 l/m 2 min 0 min 221 W/m 16,1 km/h (3 Bft) 97,87 %
31.10.2021 13:38 15,7 C 15,6 C 13,9 C 87 % 1001,1 hPa 0,0 l/m 2 min 0 min 196 W/m 12,9 km/h (3 Bft) 97,87 %
31.10.2021 13:40 15,7 C 15,6 C 13,9 C 87 % 1001,2 hPa 0,0 l/m 0 min 0 min 171 W/m 19,3 km/h (3 Bft) 95,74 %
31.10.2021 13:42 15,8 C 15,6 C 13,9 C 87 % 1001,1 hPa 0,0 l/m 0 min 0 min 160 W/m 12,9 km/h (3 Bft) 95,74 %
31.10.2021 13:44 15,8 C 15,6 C 13,9 C 87 % 1001,1 hPa 0,0 l/m 0 min 0 min 151 W/m 12,9 km/h (3 Bft) 97,83 %
31.10.2021 13:46 15,8 C 15,6 C 13,9 C 87 % 1001,0 hPa 0,0 l/m 0 min 0 min 149 W/m 16,1 km/h (3 Bft) 95,74 %
31.10.2021 13:48 15,8 C 15,6 C 13,9 C 87 % 1001,0 hPa 0,0 l/m 0 min 0 min 149 W/m 12,9 km/h (3 Bft) 97,87 %
31.10.2021 13:50 15,8 C 15,6 C 13,9 C 87 % 1001,0 hPa 0,0 l/m 0 min 0 min 147 W/m 16,1 km/h (3 Bft) 97,87 %
31.10.2021 13:52 15,8 C 15,6 C 13,9 C 87 % 1001,1 hPa 0,0 l/m 0 min 0 min 147 W/m 12,9 km/h (3 Bft) 97,87 %
31.10.2021 13:54 15,8 C 15,6 C 13,9 C 87 % 1001,1 hPa 0,0 l/m 0 min 0 min 152 W/m 9,7 km/h (2 Bft) 97,87 %
31.10.2021 13:56 15,8 C 15,6 C 13,9 C 87 % 1001,0 hPa 0,0 l/m 0 min 0 min 162 W/m 9,7 km/h (2 Bft) 97,83 %
31.10.2021 13:58 15,8 C 15,6 C 13,9 C 87 % 1001,0 hPa 0,0 l/m 0 min 0 min 170 W/m 19,3 km/h (3 Bft) 97,87 %
31.10.2021 14:00 15,8 C 15,6 C 13,9 C 87 % 1000,9 hPa 0,0 l/m 0 min 0 min 175 W/m 19,3 km/h (3 Bft) 100,00 %
31.10.2021 14:02 15,9 C 15,6 C 13,9 C 87 % 1000,9 hPa 0,0 l/m 2 min 0 min 180 W/m 25,7 km/h (4 Bft) 100,00 %
31.10.2021 14:04 15,9 C 15,6 C 13,9 C 87 % 1000,9 hPa 0,0 l/m 2 min 0 min 196 W/m 9,7 km/h (2 Bft) 100,00 %
31.10.2021 14:06 15,9 C 15,6 C 13,9 C 87 % 1000,8 hPa 0,0 l/m 2 min 0 min 203 W/m 16,1 km/h (3 Bft) 100,00 %
31.10.2021 14:08 15,9 C 16,1 C 13,9 C 87 % 1000,8 hPa 0,0 l/m 2 min 0 min 209 W/m 12,9 km/h (3 Bft) 97,83 %
31.10.2021 14:10 15,9 C 16,1 C 13,9 C 86 % 1000,7 hPa 0,0 l/m 2 min 0 min 194 W/m 16,1 km/h (3 Bft) 100,00 %
31.10.2021 14:12 15,9 C 16,1 C 13,9 C 86 % 1000,8 hPa 0,0 l/m 0 min 0 min 169 W/m 19,3 km/h (3 Bft) 100,00 %
31.10.2021 14:14 15,9 C 16,1 C 13,9 C 86 % 1000,7 hPa 0,0 l/m 0 min 0 min 156 W/m 16,1 km/h (3 Bft) 100,00 %
31.10.2021 14:16 16,0 C 15,6 C 13,9 C 87 % 1000,7 hPa 0,0 l/m 0 min 0 min 146 W/m 19,3 km/h (3 Bft) 100,00 %
31.10.2021 14:18 16,0 C 15,6 C 13,9 C 86 % 1000,6 hPa 0,0 l/m 0 min 0 min 142 W/m 19,3 km/h (3 Bft) 97,87 %
31.10.2021 14:20 16,0 C 15,6 C 13,9 C 86 % 1000,6 hPa 0,0 l/m 0 min 0 min 146 W/m 22,5 km/h (4 Bft) 100,00 %
31.10.2021 14:22 16,0 C 15,6 C 13,9 C 86 % 1000,5 hPa 0,0 l/m 0 min 0 min 159 W/m 29,0 km/h (5 Bft) 100,00 %
31.10.2021 14:24 16,0 C 15,6 C 13,9 C 86 % 1000,4 hPa 0,0 l/m 2 min 0 min 168 W/m 19,3 km/h (3 Bft) 100,00 %
31.10.2021 14:26 16,0 C 15,6 C 13,9 C 86 % 1000,4 hPa 0,0 l/m 2 min 0 min 175 W/m 19,3 km/h (3 Bft) 97,87 %
31.10.2021 14:28 16,0 C 16,1 C 13,9 C 86 % 1000,3 hPa 0,0 l/m 2 min 0 min 202 W/m 12,9 km/h (3 Bft) 100,00 %
31.10.2021 14:30 16,0 C 16,1 C 13,9 C 86 % 1000,3 hPa 0,0 l/m 2 min 0 min 184 W/m 12,9 km/h (3 Bft) 100,00 %
31.10.2021 14:32 16,0 C 15,6 C 13,9 C 86 % 1000,2 hPa 0,0 l/m 2 min 0 min 157 W/m 22,5 km/h (4 Bft) 100,00 %
31.10.2021 14:34 16,0 C 15,6 C 13,9 C 86 % 1000,1 hPa 0,0 l/m 2 min 0 min 163 W/m 16,1 km/h (3 Bft) 100,00 %
31.10.2021 14:36 16,0 C 15,6 C 13,9 C 86 % 999,9 hPa 0,0 l/m 2 min 0 min 193 W/m 22,5 km/h (4 Bft) 100,00 %
31.10.2021 14:38 16,0 C 15,6 C 13,9 C 86 % 1000,0 hPa 0,0 l/m 2 min 0 min 161 W/m 29,0 km/h (5 Bft) 100,00 %
31.10.2021 14:40 16,0 C 15,6 C 13,9 C 86 % 999,9 hPa 0,0 l/m 0 min 0 min 148 W/m 22,5 km/h (4 Bft) 100,00 %
31.10.2021 14:42 16,1 C 15,6 C 13,9 C 86 % 999,9 hPa 0,0 l/m 0 min 0 min 147 W/m 19,3 km/h (3 Bft) 100,00 %
31.10.2021 14:44 16,1 C 15,6 C 13,9 C 86 % 999,9 hPa 0,0 l/m 0 min 0 min 145 W/m 22,5 km/h (4 Bft) 100,00 %
31.10.2021 14:46 16,1 C 15,6 C 13,9 C 86 % 1000,0 hPa 0,0 l/m 2 min 0 min 151 W/m 25,7 km/h (4 Bft) 100,00 %
31.10.2021 14:48 16,1 C 16,1 C 13,9 C 86 % 999,9 hPa 0,0 l/m 0 min 0 min 136 W/m 12,9 km/h (3 Bft) 97,87 %
31.10.2021 14:50 16,1 C 15,6 C 13,9 C 86 % 1000,0 hPa 0,0 l/m 0 min 0 min 131 W/m 25,7 km/h (4 Bft) 97,87 %
31.10.2021 14:52 16,1 C 15,6 C 13,9 C 86 % 1000,0 hPa 0,0 l/m 0 min 0 min 132 W/m 16,1 km/h (3 Bft) 95,74 %
31.10.2021 14:54 16,1 C 15,6 C 13,9 C 86 % 999,9 hPa 0,0 l/m 0 min 0 min 133 W/m 16,1 km/h (3 Bft) 97,83 %
31.10.2021 14:56 16,1 C 15,6 C 13,9 C 86 % 999,9 hPa 0,0 l/m 0 min 0 min 126 W/m 12,9 km/h (3 Bft) 97,87 %
31.10.2021 14:58 16,1 C 15,6 C 13,9 C 86 % 999,7 hPa 0,0 l/m 0 min 0 min 127 W/m 16,1 km/h (3 Bft) 97,87 %
31.10.2021 15:00 16,1 C 15,6 C 13,9 C 86 % 999,7 hPa 0,0 l/m 0 min 0 min 126 W/m 19,3 km/h (3 Bft) 97,87 %
31.10.2021 15:02 16,1 C 15,6 C 13,9 C 86 % 999,6 hPa 0,0 l/m 0 min 0 min 123 W/m 12,9 km/h (3 Bft) 95,74 %
31.10.2021 15:04 16,1 C 15,6 C 13,9 C 86 % 999,6 hPa 0,0 l/m 0 min 0 min 115 W/m 16,1 km/h (3 Bft) 95,74 %
31.10.2021 15:06 16,1 C 15,6 C 13,9 C 86 % 999,5 hPa 0,0 l/m 0 min 0 min 110 W/m 16,1 km/h (3 Bft) 97,83 %
31.10.2021 15:08 16,1 C 15,6 C 13,9 C 86 % 999,4 hPa 0,0 l/m 0 min 0 min 105 W/m 16,1 km/h (3 Bft) 97,87 %
31.10.2021 15:10 16,1 C 15,6 C 13,9 C 86 % 999,4 hPa 0,0 l/m 0 min 0 min 104 W/m 16,1 km/h (3 Bft) 95,74 %
31.10.2021 15:12 16,1 C 15,6 C 13,9 C 86 % 999,4 hPa 0,0 l/m 0 min 0 min 103 W/m 12,9 km/h (3 Bft) 95,74 %
31.10.2021 15:14 16,1 C 15,6 C 13,9 C 86 % 999,4 hPa 0,0 l/m 0 min 0 min 101 W/m 16,1 km/h (3 Bft) 95,74 %
31.10.2021 15:16 16,1 C 15,6 C 13,9 C 86 % 999,4 hPa 0,0 l/m 0 min 0 min 96 W/m 16,1 km/h (3 Bft) 95,74 %
31.10.2021 15:18 16,1 C 15,6 C 13,9 C 86 % 999,4 hPa 0,0 l/m 0 min 0 min 93 W/m 19,3 km/h (3 Bft) 96,30 %
31.10.2021 15:20 16,1 C 15,6 C 13,9 C 86 % 999,4 hPa 0,0 l/m 0 min 0 min 93 W/m 29,0 km/h (5 Bft) 95,74 %
31.10.2021 15:22 16,1 C 15,6 C 13,9 C 87 % 999,4 hPa 0,0 l/m 0 min 0 min 92 W/m 22,5 km/h (4 Bft) 95,65 %
31.10.2021 15:24 16,1 C 15,6 C 13,9 C 87 % 999,3 hPa 0,0 l/m 0 min 0 min 91 W/m 16,1 km/h (3 Bft) 95,74 %
31.10.2021 15:26 16,1 C 15,6 C 13,9 C 87 % 999,3 hPa 0,0 l/m 0 min 0 min 87 W/m 32,2 km/h (5 Bft) 95,74 %
31.10.2021 15:28 16,1 C 15,6 C 13,9 C 87 % 999,3 hPa 0,0 l/m 0 min 0 min 80 W/m 19,3 km/h (3 Bft) 97,87 %
31.10.2021 15:30 16,1 C 15,6 C 13,9 C 87 % 999,2 hPa 0,0 l/m 0 min 0 min 71 W/m 12,9 km/h (3 Bft) 95,74 %
31.10.2021 15:32 16,1 C 15,6 C 13,9 C 87 % 999,2 hPa 0,0 l/m 0 min 0 min 64 W/m 19,3 km/h (3 Bft) 97,87 %
31.10.2021 15:34 16,1 C 15,6 C 13,9 C 87 % 999,2 hPa 0,0 l/m 0 min 0 min 59 W/m 16,1 km/h (3 Bft) 97,83 %
31.10.2021 15:36 16,1 C 15,6 C 13,9 C 87 % 999,1 hPa 0,0 l/m 0 min 0 min 58 W/m 19,3 km/h (3 Bft) 100,00 %
31.10.2021 15:38 16,1 C 15,6 C 13,9 C 87 % 999,1 hPa 0,0 l/m 0 min 0 min 58 W/m 16,1 km/h (3 Bft) 97,50 %
31.10.2021 15:40 16,1 C 15,6 C 13,9 C 87 % 999,1 hPa 0,0 l/m 0 min 0 min 61 W/m 16,1 km/h (3 Bft) 97,87 %
31.10.2021 15:42 16,1 C 15,6 C 13,9 C 87 % 999,0 hPa 0,0 l/m 0 min 0 min 63 W/m 12,9 km/h (3 Bft) 95,65 %
31.10.2021 15:44 16,0 C 15,6 C 13,9 C 87 % 999,0 hPa 0,0 l/m 0 min 0 min 65 W/m 12,9 km/h (3 Bft) 97,87 %
31.10.2021 15:46 16,0 C 15,6 C 13,9 C 87 % 998,9 hPa 0,0 l/m 0 min 0 min 64 W/m 16,1 km/h (3 Bft) 100,00 %
31.10.2021 15:48 16,0 C 15,6 C 13,9 C 87 % 998,9 hPa 0,0 l/m 0 min 0 min 60 W/m 12,9 km/h (3 Bft) 97,87 %
31.10.2021 15:50 16,0 C 15,6 C 13,9 C 87 % 998,8 hPa 0,0 l/m 0 min 0 min 58 W/m 6,4 km/h (2 Bft) 93,62 %
31.10.2021 15:52 16,0 C 15,6 C 13,4 C 87 % 998,8 hPa 0,0 l/m 0 min 0 min 56 W/m 12,9 km/h (3 Bft) 95,74 %
31.10.2021 15:54 16,0 C 15,6 C 13,4 C 88 % 998,7 hPa 0,0 l/m 0 min 0 min 55 W/m 19,3 km/h (3 Bft) 95,65 %
31.10.2021 15:56 16,0 C 15,6 C 13,9 C 88 % 998,6 hPa 0,0 l/m 0 min 0 min 54 W/m 25,7 km/h (4 Bft) 95,74 %
31.10.2021 15:58 16,0 C 15,6 C 13,9 C 88 % 998,6 hPa 0,0 l/m 0 min 0 min 52 W/m 22,5 km/h (4 Bft) 93,62 %
31.10.2021 16:00 16,0 C 15,6 C 13,9 C 88 % 998,6 hPa 0,0 l/m 0 min 0 min 50 W/m 19,3 km/h (3 Bft) 95,74 %
31.10.2021 16:02 16,0 C 15,6 C 13,9 C 88 % 998,5 hPa 0,0 l/m 0 min 0 min 47 W/m 16,1 km/h (3 Bft) 97,87 %
31.10.2021 16:04 16,0 C 15,6 C 13,9 C 88 % 998,5 hPa 0,0 l/m 0 min 0 min 46 W/m 16,1 km/h (3 Bft) 97,87 %
31.10.2021 16:06 16,0 C 15,6 C 13,9 C 88 % 998,5 hPa 0,0 l/m 0 min 0 min 40 W/m 22,5 km/h (4 Bft) 97,83 %
31.10.2021 16:08 16,0 C 15,6 C 13,9 C 88 % 998,4 hPa 0,0 l/m 0 min 0 min 38 W/m 16,1 km/h (3 Bft) 97,87 %
31.10.2021 16:10 16,0 C 15,6 C 13,9 C 88 % 998,4 hPa 0,0 l/m 0 min 0 min 35 W/m 16,1 km/h (3 Bft) 97,87 %
31.10.2021 16:12 16,0 C 15,6 C 13,4 C 88 % 998,4 hPa 0,0 l/m 0 min 0 min 34 W/m 9,7 km/h (2 Bft) 97,87 %
31.10.2021 16:14 16,0 C 15,6 C 13,9 C 88 % 998,3 hPa 0,0 l/m 0 min 0 min 33 W/m 25,7 km/h (4 Bft) 97,87 %
31.10.2021 16:16 16,0 C 15,6 C 13,9 C 88 % 998,4 hPa 0,0 l/m 0 min 0 min 33 W/m 22,5 km/h (4 Bft) 95,74 %
31.10.2021 16:18 16,0 C 15,6 C 13,9 C 88 % 998,3 hPa 0,0 l/m 0 min 0 min 32 W/m 19,3 km/h (3 Bft) 97,83 %
31.10.2021 16:20 16,0 C 15,6 C 13,9 C 88 % 998,3 hPa 0,0 l/m 0 min 0 min 30 W/m 16,1 km/h (3 Bft) 97,87 %
31.10.2021 16:22 16,0 C 15,6 C 13,9 C 88 % 998,3 hPa 0,0 l/m 0 min 0 min 28 W/m 12,9 km/h (3 Bft) 97,87 %
31.10.2021 16:24 16,0 C 15,6 C 13,9 C 88 % 998,2 hPa 0,0 l/m 0 min 0 min 28 W/m 22,5 km/h (4 Bft) 97,87 %
31.10.2021 16:26 16,0 C 15,6 C 13,9 C 88 % 998,2 hPa 0,0 l/m 0 min 0 min 28 W/m 16,1 km/h (3 Bft) 97,87 %
31.10.2021 16:28 16,0 C 15,6 C 13,9 C 88 % 998,1 hPa 0,0 l/m 0 min 0 min 28 W/m 12,9 km/h (3 Bft) 97,87 %
31.10.2021 16:30 16,0 C 15,6 C 13,9 C 88 % 998,1 hPa 0,0 l/m 0 min 0 min 27 W/m 16,1 km/h (3 Bft) 97,83 %
31.10.2021 16:32 16,0 C 15,6 C 13,4 C 88 % 998,1 hPa 0,0 l/m 0 min 0 min 26 W/m 22,5 km/h (4 Bft) 95,74 %
31.10.2021 16:34 16,0 C 15,6 C 13,9 C 88 % 998,1 hPa 0,0 l/m 0 min 0 min 22 W/m 19,3 km/h (3 Bft) 100,00 %
31.10.2021 16:36 16,0 C 15,6 C 13,9 C 88 % 998,0 hPa 0,0 l/m 0 min 0 min 20 W/m 12,9 km/h (3 Bft) 100,00 %
31.10.2021 16:38 16,0 C 15,6 C 13,9 C 88 % 998,0 hPa 0,0 l/m 0 min 0 min 19 W/m 22,5 km/h (4 Bft) 100,00 %
31.10.2021 16:40 16,0 C 15,6 C 13,9 C 88 % 997,9 hPa 0,0 l/m 0 min 0 min 18 W/m 16,1 km/h (3 Bft) 100,00 %
31.10.2021 16:42 16,0 C 15,6 C 13,9 C 88 % 997,9 hPa 0,0 l/m 0 min 0 min 17 W/m 16,1 km/h (3 Bft) 100,00 %
31.10.2021 16:44 16,0 C 15,6 C 13,9 C 88 % 997,8 hPa 0,0 l/m 0 min 0 min 15 W/m 16,1 km/h (3 Bft) 100,00 %
31.10.2021 16:46 16,0 C 15,6 C 13,9 C 88 % 997,7 hPa 0,0 l/m 0 min 0 min 13 W/m 25,7 km/h (4 Bft) 100,00 %
31.10.2021 16:48 16,0 C 15,6 C 13,9 C 88 % 997,7 hPa 0,0 l/m 0 min 0 min 11 W/m 16,1 km/h (3 Bft) 100,00 %
31.10.2021 16:50 16,0 C 15,6 C 13,9 C 88 % 997,7 hPa 0,0 l/m 0 min 0 min 10 W/m 16,1 km/h (3 Bft) 100,00 %
31.10.2021 16:52 16,0 C 15,6 C 13,9 C 88 % 997,6 hPa 0,0 l/m 0 min 0 min 9 W/m 19,3 km/h (3 Bft) 100,00 %
31.10.2021 16:54 16,0 C 15,6 C 13,9 C 88 % 997,5 hPa 0,0 l/m 0 min 0 min 7 W/m 19,3 km/h (3 Bft) 97,83 %
31.10.2021 16:56 16,0 C 15,6 C 13,9 C 88 % 997,5 hPa 0,0 l/m 0 min 0 min 7 W/m 22,5 km/h (4 Bft) 97,87 %
31.10.2021 16:58 16,1 C 15,6 C 13,9 C 88 % 997,5 hPa 0,0 l/m 0 min 0 min 5 W/m 16,1 km/h (3 Bft) 97,87 %
31.10.2021 17:00 16,1 C 15,6 C 13,9 C 88 % 997,4 hPa 0,0 l/m 0 min 0 min 5 W/m 19,3 km/h (3 Bft) 97,87 %
31.10.2021 17:02 16,1 C 15,6 C 13,9 C 88 % 997,3 hPa 0,0 l/m 0 min 0 min 7 W/m 19,3 km/h (3 Bft) 93,62 %
31.10.2021 17:04 16,1 C 15,6 C 13,9 C 88 % 997,3 hPa 0,0 l/m 0 min 0 min 7 W/m 16,1 km/h (3 Bft) 97,87 %
31.10.2021 17:06 16,1 C 15,6 C 13,9 C 88 % 997,3 hPa 0,0 l/m 0 min 0 min 6 W/m 16,1 km/h (3 Bft) 97,87 %
31.10.2021 17:08 16,1 C 15,6 C 13,9 C 88 % 997,3 hPa 0,0 l/m 0 min 0 min 5 W/m 16,1 km/h (3 Bft) 97,87 %
31.10.2021 17:10 16,1 C 15,6 C 13,9 C 88 % 997,2 hPa 0,0 l/m 0 min 0 min 0 W/m 22,5 km/h (4 Bft) 97,87 %
31.10.2021 17:12 16,1 C 15,6 C 13,9 C 88 % 997,2 hPa 0,0 l/m 0 min 0 min 0 W/m 12,9 km/h (3 Bft) 95,74 %
31.10.2021 17:14 16,1 C 15,6 C 13,9 C 88 % 997,2 hPa 0,0 l/m 0 min 0 min 0 W/m 19,3 km/h (3 Bft) 97,87 %
31.10.2021 17:16 16,2 C 15,6 C 13,9 C 88 % 997,2 hPa 0,0 l/m 0 min 0 min 0 W/m 16,1 km/h (3 Bft) 97,83 %
31.10.2021 17:18 16,2 C 15,6 C 13,9 C 88 % 997,2 hPa 0,0 l/m 0 min 0 min 0 W/m 12,9 km/h (3 Bft) 97,87 %
31.10.2021 17:20 16,2 C 15,6 C 13,9 C 88 % 997,1 hPa 0,0 l/m 0 min 0 min 0 W/m 22,5 km/h (4 Bft) 97,87 %
31.10.2021 17:22 16,2 C 15,6 C 13,9 C 88 % 997,1 hPa 0,0 l/m 0 min 0 min 0 W/m 16,1 km/h (3 Bft) 97,87 %
31.10.2021 17:24 16,2 C 15,6 C 13,9 C 87 % 997,0 hPa 0,0 l/m 0 min 0 min 0 W/m 12,9 km/h (3 Bft) 95,74 %
31.10.2021 17:26 16,3 C 15,6 C 13,9 C 87 % 997,0 hPa 0,0 l/m 0 min 0 min 0 W/m 19,3 km/h (3 Bft) 97,87 %
31.10.2021 17:28 16,3 C 15,6 C 13,9 C 87 % 997,0 hPa 0,0 l/m 0 min 0 min 0 W/m 19,3 km/h (3 Bft) 100,00 %
31.10.2021 17:30 16,3 C 15,6 C 13,9 C 87 % 997,0 hPa 0,0 l/m 0 min 0 min 0 W/m 25,7 km/h (4 Bft) 100,00 %
31.10.2021 17:32 16,3 C 15,6 C 13,9 C 87 % 997,0 hPa 0,0 l/m 0 min 0 min 0 W/m 19,3 km/h (3 Bft) 100,00 %
31.10.2021 17:34 16,3 C 15,6 C 13,9 C 87 % 997,0 hPa 0,0 l/m 0 min 0 min 0 W/m 25,7 km/h (4 Bft) 100,00 %
31.10.2021 17:36 16,3 C 15,6 C 13,9 C 87 % 997,0 hPa 0,0 l/m 0 min 0 min 0 W/m 29,0 km/h (5 Bft) 100,00 %
31.10.2021 17:38 16,4 C 15,6 C 13,9 C 87 % 997,0 hPa 0,0 l/m 0 min 0 min 0 W/m 22,5 km/h (4 Bft) 100,00 %
31.10.2021 17:40 16,4 C 16,1 C 14,5 C 87 % 997,0 hPa 0,0 l/m 0 min 0 min 0 W/m 25,7 km/h (4 Bft) 100,00 %
31.10.2021 17:42 16,4 C 15,6 C 13,9 C 87 % 996,9 hPa 0,0 l/m 0 min 0 min 0 W/m 16,1 km/h (3 Bft) 100,00 %
31.10.2021 17:44 16,5 C 15,6 C 13,9 C 87 % 996,9 hPa 0,0 l/m 0 min 0 min 0 W/m 19,3 km/h (3 Bft) 97,87 %
31.10.2021 17:46 16,5 C 15,6 C 13,9 C 87 % 996,9 hPa 0,0 l/m 0 min 0 min 0 W/m 19,3 km/h (3 Bft) 100,00 %
31.10.2021 17:48 16,5 C 15,6 C 13,9 C 87 % 997,0 hPa 0,0 l/m 0 min 0 min 0 W/m 22,5 km/h (4 Bft) 100,00 %
31.10.2021 17:50 16,5 C 15,6 C 13,9 C 87 % 997,0 hPa 0,0 l/m 0 min 0 min 0 W/m 12,9 km/h (3 Bft) 97,87 %
31.10.2021 17:52 16,5 C 15,6 C 13,9 C 87 % 996,9 hPa 0,0 l/m 0 min 0 min 0 W/m 12,9 km/h (3 Bft) 100,00 %
31.10.2021 17:54 16,5 C 15,6 C 13,9 C 87 % 996,9 hPa 0,0 l/m 0 min 0 min 0 W/m 12,9 km/h (3 Bft) 100,00 %
31.10.2021 17:56 16,5 C 16,1 C 13,9 C 86 % 996,8 hPa 0,0 l/m 0 min 0 min 0 W/m 16,1 km/h (3 Bft) 97,87 %
31.10.2021 17:58 16,6 C 16,1 C 13,9 C 87 % 996,8 hPa 0,0 l/m 0 min 2 min 0 W/m 16,1 km/h (3 Bft) 97,87 %
31.10.2021 18:00 16,6 C 15,6 C 13,9 C 87 % 996,8 hPa 0,0 l/m 0 min 0 min 0 W/m 12,9 km/h (3 Bft) 100,00 %
31.10.2021 18:02 16,6 C 15,6 C 13,9 C 87 % 996,8 hPa 0,0 l/m 0 min 0 min 0 W/m 9,7 km/h (2 Bft) 100,00 %
31.10.2021 18:04 16,6 C 15,6 C 13,4 C 87 % 996,7 hPa 0,0 l/m 0 min 2 min 0 W/m 16,1 km/h (3 Bft) 97,83 %
31.10.2021 18:08 16,6 C 15,6 C 12,8 C 87 % 996,7 hPa 0,0 l/m 0 min 4 min 0 W/m 16,1 km/h (3 Bft) 97,87 %
31.10.2021 18:10 16,6 C 15,6 C 12,8 C 87 % 996,6 hPa 0,2 l/m 0 min 2 min 0 W/m 19,3 km/h (3 Bft) 97,87 %
31.10.2021 18:12 16,6 C 15,6 C 12,8 C 88 % 996,5 hPa 0,0 l/m 0 min 2 min 0 W/m 19,3 km/h (3 Bft) 97,87 %
31.10.2021 18:15 16,5 C 15,0 C 12,8 C 88 % 996,4 hPa 0,0 l/m 0 min 3 min 0 W/m 19,3 km/h (3 Bft) 97,14 %
31.10.2021 18:16 16,5 C 15,0 C 12,8 C 88 % 996,4 hPa 0,0 l/m 0 min 1 min 0 W/m 16,1 km/h (3 Bft) 95,65 %
31.10.2021 18:18 16,5 C 15,0 C 12,8 C 88 % 996,4 hPa 0,2 l/m 0 min 2 min 0 W/m 35,4 km/h (5 Bft) 97,87 %
31.10.2021 18:20 16,5 C 15,0 C 12,8 C 88 % 996,3 hPa 0,0 l/m 0 min 2 min 0 W/m 19,3 km/h (3 Bft) 97,87 %
31.10.2021 18:22 16,4 C 15,0 C 12,8 C 89 % 996,3 hPa 0,0 l/m 0 min 2 min 0 W/m 19,3 km/h (3 Bft) 95,74 %
31.10.2021 18:24 16,4 C 15,0 C 12,8 C 89 % 996,3 hPa 0,0 l/m 0 min 2 min 0 W/m 19,3 km/h (3 Bft) 97,87 %
31.10.2021 18:26 16,3 C 15,0 C 12,8 C 89 % 996,3 hPa 0,0 l/m 0 min 0 min 0 W/m 22,5 km/h (4 Bft) 95,74 %
31.10.2021 18:28 16,3 C 15,0 C 12,8 C 89 % 996,3 hPa 0,0 l/m 0 min 0 min 0 W/m 19,3 km/h (3 Bft) 97,83 %
31.10.2021 18:30 16,2 C 15,0 C 12,8 C 89 % 996,2 hPa 0,0 l/m 0 min 2 min 0 W/m 19,3 km/h (3 Bft) 97,87 %
31.10.2021 18:32 16,2 C 15,0 C 12,8 C 90 % 996,1 hPa 0,0 l/m 0 min 2 min 0 W/m 19,3 km/h (3 Bft) 97,87 %
31.10.2021 18:34 16,1 C 15,0 C 12,8 C 90 % 996,2 hPa 0,2 l/m 0 min 2 min 0 W/m 19,3 km/h (3 Bft) 93,62 %
31.10.2021 18:36 16,1 C 15,0 C 12,8 C 90 % 996,1 hPa 0,0 l/m 0 min 2 min 0 W/m 19,3 km/h (3 Bft) 95,74 %
31.10.2021 18:38 16,1 C 15,0 C 12,8 C 90 % 996,1 hPa 0,0 l/m 0 min 2 min 0 W/m 19,3 km/h (3 Bft) 91,49 %
31.10.2021 18:40 16,1 C 15,0 C 12,8 C 90 % 996,0 hPa 0,0 l/m 0 min 2 min 0 W/m 16,1 km/h (3 Bft) 95,65 %
31.10.2021 18:42 16,0 C 15,0 C 12,8 C 90 % 996,0 hPa 0,0 l/m 0 min 0 min 0 W/m 16,1 km/h (3 Bft) 93,62 %
31.10.2021 18:44 16,0 C 15,0 C 12,8 C 90 % 996,0 hPa 0,0 l/m 0 min 0 min 0 W/m 16,1 km/h (3 Bft) 95,74 %
31.10.2021 18:46 16,0 C 15,0 C 12,8 C 90 % 996,0 hPa 0,0 l/m 0 min 0 min 0 W/m 9,7 km/h (2 Bft) 95,74 %
31.10.2021 18:48 16,0 C 15,0 C 12,8 C 90 % 995,9 hPa 0,0 l/m 0 min 0 min 0 W/m 22,5 km/h (4 Bft) 95,74 %
31.10.2021 18:50 16,0 C 15,0 C 12,8 C 90 % 995,9 hPa 0,0 l/m 0 min 2 min 0 W/m 12,9 km/h (3 Bft) 97,83 %
31.10.2021 18:52 16,0 C 15,0 C 12,8 C 90 % 995,9 hPa 0,0 l/m 0 min 2 min 0 W/m 19,3 km/h (3 Bft) 85,11 %
31.10.2021 18:54 16,0 C 15,0 C 12,8 C 90 % 995,9 hPa 0,0 l/m 0 min 2 min 0 W/m 19,3 km/h (3 Bft) 93,62 %
31.10.2021 18:56 16,0 C 15,0 C 12,8 C 91 % 995,9 hPa 0,0 l/m 0 min 0 min 0 W/m 22,5 km/h (4 Bft) 95,74 %
31.10.2021 18:58 16,0 C 15,0 C 12,8 C 90 % 995,9 hPa 0,0 l/m 0 min 0 min 0 W/m 16,1 km/h (3 Bft) 95,74 %
31.10.2021 19:00 16,0 C 15,0 C 12,8 C 90 % 995,9 hPa 0,0 l/m 0 min 2 min 0 W/m 19,3 km/h (3 Bft) 95,74 %
31.10.2021 19:02 16,0 C 15,0 C 12,8 C 90 % 995,8 hPa 0,0 l/m 0 min 2 min 0 W/m 22,5 km/h (4 Bft) 95,65 %
31.10.2021 19:04 16,0 C 15,0 C 12,8 C 90 % 995,7 hPa 0,0 l/m 0 min 2 min 0 W/m 16,1 km/h (3 Bft) 95,74 %
31.10.2021 19:06 16,0 C 15,0 C 12,8 C 91 % 995,8 hPa 0,0 l/m 0 min 2 min 0 W/m 19,3 km/h (3 Bft) 91,49 %
31.10.2021 19:08 16,0 C 15,0 C 12,8 C 91 % 995,8 hPa 0,0 l/m 0 min 2 min 0 W/m 19,3 km/h (3 Bft) 93,62 %
31.10.2021 19:10 16,0 C 15,0 C 12,8 C 91 % 995,7 hPa 0,0 l/m 0 min 2 min 0 W/m 16,1 km/h (3 Bft) 95,74 %
31.10.2021 19:12 16,0 C 15,0 C 12,8 C 91 % 995,7 hPa 0,2 l/m 0 min 2 min 0 W/m 16,1 km/h (3 Bft) 93,62 %
31.10.2021 19:14 16,0 C 15,0 C 12,8 C 91 % 995,7 hPa 0,0 l/m 0 min 2 min 0 W/m 16,1 km/h (3 Bft) 95,65 %
31.10.2021 19:16 16,0 C 15,0 C 12,8 C 91 % 995,6 hPa 0,0 l/m 0 min 0 min 0 W/m 16,1 km/h (3 Bft) 93,62 %
31.10.2021 19:18 16,0 C 15,0 C 12,8 C 91 % 995,7 hPa 0,0 l/m 0 min 2 min 0 W/m 19,3 km/h (3 Bft) 95,74 %
31.10.2021 19:20 16,0 C 15,0 C 12,8 C 91 % 995,5 hPa 0,0 l/m 0 min 2 min 0 W/m 16,1 km/h (3 Bft) 95,74 %
31.10.2021 19:22 16,0 C 15,0 C 12,8 C 91 % 995,5 hPa 0,0 l/m 0 min 2 min 0 W/m 29,0 km/h (5 Bft) 95,74 %
31.10.2021 19:24 16,0 C 15,0 C 12,8 C 91 % 995,5 hPa 0,0 l/m 0 min 2 min 0 W/m 22,5 km/h (4 Bft) 100,00 %
31.10.2021 19:26 16,0 C 15,0 C 12,8 C 91 % 995,5 hPa 0,0 l/m 0 min 0 min 0 W/m 22,5 km/h (4 Bft) 100,00 %
31.10.2021 19:28 16,0 C 15,0 C 12,8 C 91 % 995,4 hPa 0,0 l/m 0 min 0 min 0 W/m 16,1 km/h (3 Bft) 100,00 %
31.10.2021 19:30 16,0 C 15,0 C 12,8 C 91 % 995,3 hPa 0,0 l/m 0 min 0 min 0 W/m 19,3 km/h (3 Bft) 97,87 %
31.10.2021 19:32 16,0 C 15,0 C 12,8 C 91 % 995,3 hPa 0,0 l/m 0 min 0 min 0 W/m 16,1 km/h (3 Bft) 100,00 %
31.10.2021 19:34 16,0 C 15,0 C 12,8 C 91 % 995,3 hPa 0,0 l/m 0 min 0 min 0 W/m 22,5 km/h (4 Bft) 100,00 %
31.10.2021 19:36 16,0 C 15,0 C 12,8 C 91 % 995,3 hPa 0,0 l/m 0 min 0 min 0 W/m 16,1 km/h (3 Bft) 100,00 %
31.10.2021 19:38 16,0 C 15,0 C 12,8 C 91 % 995,2 hPa 0,0 l/m 0 min 0 min 0 W/m 16,1 km/h (3 Bft) 100,00 %
31.10.2021 19:40 16,0 C 15,6 C 12,8 C 91 % 995,2 hPa 0,0 l/m 0 min 0 min 0 W/m 19,3 km/h (3 Bft) 97,87 %
31.10.2021 19:42 16,1 C 15,0 C 12,8 C 91 % 995,1 hPa 0,0 l/m 0 min 0 min 0 W/m 19,3 km/h (3 Bft) 100,00 %
31.10.2021 19:44 16,1 C 15,6 C 12,8 C 91 % 995,1 hPa 0,0 l/m 0 min 0 min 0 W/m 16,1 km/h (3 Bft) 100,00 %
31.10.2021 19:46 16,1 C 15,6 C 12,8 C 90 % 995,1 hPa 0,0 l/m 0 min 0 min 0 W/m 32,2 km/h (5 Bft) 97,87 %
31.10.2021 19:48 16,1 C 15,6 C 12,8 C 90 % 995,0 hPa 0,0 l/m 0 min 0 min 0 W/m 25,7 km/h (4 Bft) 100,00 %
31.10.2021 19:50 16,2 C 15,6 C 12,8 C 90 % 995,0 hPa 0,0 l/m 0 min 0 min 0 W/m 29,0 km/h (5 Bft) 97,83 %
31.10.2021 19:52 16,3 C 15,6 C 12,8 C 90 % 995,0 hPa 0,0 l/m 0 min 0 min 0 W/m 22,5 km/h (4 Bft) 100,00 %
31.10.2021 19:54 16,3 C 15,6 C 12,8 C 89 % 994,9 hPa 0,0 l/m 0 min 0 min 0 W/m 19,3 km/h (3 Bft) 100,00 %
31.10.2021 19:56 16,4 C 15,6 C 13,4 C 89 % 994,9 hPa 0,0 l/m 0 min 0 min 0 W/m 29,0 km/h (5 Bft) 100,00 %
31.10.2021 19:58 16,4 C 16,1 C 13,4 C 89 % 994,8 hPa 0,0 l/m 0 min 0 min 0 W/m 29,0 km/h (5 Bft) 97,87 %
31.10.2021 20:00 16,5 C 15,6 C 13,4 C 89 % 994,8 hPa 0,0 l/m 0 min 0 min 0 W/m 19,3 km/h (3 Bft) 97,87 %
31.10.2021 20:02 16,5 C 16,1 C 13,4 C 88 % 994,8 hPa 0,0 l/m 0 min 0 min 0 W/m 29,0 km/h (5 Bft) 100,00 %
31.10.2021 20:04 16,5 C 16,1 C 13,4 C 88 % 994,6 hPa 0,0 l/m 0 min 2 min 0 W/m 19,3 km/h (3 Bft) 100,00 %
31.10.2021 20:06 16,6 C 16,1 C 13,4 C 88 % 994,5 hPa 0,2 l/m 0 min 2 min 0 W/m 35,4 km/h (5 Bft) 97,87 %
31.10.2021 20:08 16,6 C 15,6 C 13,4 C 88 % 994,5 hPa 0,0 l/m 0 min 2 min 0 W/m 22,5 km/h (4 Bft) 100,00 %
31.10.2021 20:10 16,6 C 15,6 C 13,4 C 88 % 994,6 hPa 0,0 l/m 0 min 2 min 0 W/m 38,6 km/h (5 Bft) 100,00 %
31.10.2021 20:12 16,6 C 15,6 C 12,8 C 88 % 994,9 hPa 0,0 l/m 0 min 2 min 0 W/m 29,0 km/h (5 Bft) 100,00 %
31.10.2021 20:14 16,6 C 15,0 C 13,4 C 89 % 995,5 hPa 0,4 l/m 0 min 2 min 0 W/m 32,2 km/h (5 Bft) 100,00 %
31.10.2021 20:15 16,5 C 14,4 C 12,8 C 89 % 996,5 hPa 0,6 l/m 0 min 1 min 0 W/m 38,6 km/h (5 Bft) 100,00 %
31.10.2021 20:18 15,8 C 12,8 C 12,3 C 88 % 996,4 hPa 1,4 l/m 0 min 3 min 0 W/m 25,7 km/h (4 Bft) 100,00 %
31.10.2021 20:20 15,0 C 12,2 C 11,7 C 88 % 996,3 hPa 0,2 l/m 0 min 2 min 0 W/m 22,5 km/h (4 Bft) 100,00 %
31.10.2021 20:22 14,3 C 11,7 C 11,1 C 88 % 996,6 hPa 0,2 l/m 0 min 2 min 0 W/m 35,4 km/h (5 Bft) 97,83 %
31.10.2021 20:24 14,0 C 11,7 C 11,1 C 90 % 997,0 hPa 0,0 l/m 0 min 2 min 0 W/m 32,2 km/h (5 Bft) 100,00 %
31.10.2021 20:26 13,8 C 11,7 C 11,1 C 90 % 996,9 hPa 0,2 l/m 0 min 2 min 0 W/m 35,4 km/h (5 Bft) 97,87 %
31.10.2021 20:28 13,5 C 11,7 C 11,1 C 91 % 996,9 hPa 0,2 l/m 0 min 2 min 0 W/m 25,7 km/h (4 Bft) 100,00 %
31.10.2021 20:30 13,4 C 11,7 C 11,1 C 91 % 996,9 hPa 0,0 l/m 0 min 2 min 0 W/m 19,3 km/h (3 Bft) 97,87 %
31.10.2021 20:32 13,2 C 11,7 C 11,1 C 92 % 997,1 hPa 0,2 l/m 0 min 2 min 0 W/m 19,3 km/h (3 Bft) 100,00 %
31.10.2021 20:34 13,1 C 11,7 C 11,1 C 92 % 997,3 hPa 0,2 l/m 0 min 2 min 0 W/m 16,1 km/h (3 Bft) 96,15 %
31.10.2021 20:36 13,0 C 11,7 C 10,6 C 92 % 997,4 hPa 0,2 l/m 0 min 2 min 0 W/m 22,5 km/h (4 Bft) 100,00 %
31.10.2021 20:38 12,9 C 11,1 C 10,6 C 93 % 997,4 hPa 0,2 l/m 0 min 2 min 0 W/m 12,9 km/h (3 Bft) 100,00 %
31.10.2021 20:40 12,8 C 11,1 C 10,6 C 93 % 997,8 hPa 0,0 l/m 0 min 2 min 0 W/m 19,3 km/h (3 Bft) 97,87 %
31.10.2021 20:42 12,8 C 11,1 C 10,6 C 93 % 997,6 hPa 0,2 l/m 0 min 2 min 0 W/m 22,5 km/h (4 Bft) 95,74 %
31.10.2021 20:44 12,6 C 11,1 C 10,6 C 93 % 997,7 hPa 0,2 l/m 0 min 2 min 0 W/m 22,5 km/h (4 Bft) 97,87 %
31.10.2021 20:46 12,5 C 11,1 C 10,6 C 93 % 997,7 hPa 0,2 l/m 0 min 2 min 0 W/m 19,3 km/h (3 Bft) 94,34 %
31.10.2021 20:48 12,5 C 11,1 C 10,6 C 93 % 997,7 hPa 0,0 l/m 0 min 2 min 0 W/m 19,3 km/h (3 Bft) 95,65 %
31.10.2021 20:50 12,4 C 11,1 C 10,6 C 93 % 997,6 hPa 0,2 l/m 0 min 2 min 0 W/m 12,9 km/h (3 Bft) 95,74 %
31.10.2021 20:52 12,4 C 11,1 C 10,6 C 93 % 997,7 hPa 0,0 l/m 0 min 2 min 0 W/m 12,9 km/h (3 Bft) 95,74 %
31.10.2021 20:54 12,3 C 11,1 C 10,6 C 94 % 997,8 hPa 0,0 l/m 0 min 2 min 0 W/m 16,1 km/h (3 Bft) 95,74 %
31.10.2021 20:56 12,3 C 11,1 C 10,6 C 94 % 997,8 hPa 0,0 l/m 0 min 0 min 0 W/m 12,9 km/h (3 Bft) 95,74 %
31.10.2021 20:58 12,2 C 11,1 C 10,0 C 94 % 997,8 hPa 0,0 l/m 0 min 2 min 0 W/m 9,7 km/h (2 Bft) 95,65 %
31.10.2021 21:00 12,1 C 10,6 C 10,0 C 94 % 997,8 hPa 0,0 l/m 0 min 2 min 0 W/m 12,9 km/h (3 Bft) 95,74 %
31.10.2021 21:02 12,1 C 10,6 C 10,0 C 94 % 997,8 hPa 0,0 l/m 0 min 0 min 0 W/m 12,9 km/h (3 Bft) 95,74 %
31.10.2021 21:04 12,1 C 10,6 C 10,0 C 94 % 997,8 hPa 0,0 l/m 0 min 0 min 0 W/m 12,9 km/h (3 Bft) 93,62 %
31.10.2021 21:06 12,0 C 10,6 C 10,0 C 94 % 997,8 hPa 0,0 l/m 0 min 0 min 0 W/m 12,9 km/h (3 Bft) 95,74 %
31.10.2021 21:08 12,0 C 10,6 C 10,0 C 94 % 997,8 hPa 0,0 l/m 0 min 0 min 0 W/m 9,7 km/h (2 Bft) 95,74 %
31.10.2021 21:10 12,0 C 11,1 C 10,0 C 94 % 997,8 hPa 0,0 l/m 0 min 0 min 0 W/m 6,4 km/h (2 Bft) 95,12 %
31.10.2021 21:12 12,0 C 11,1 C 10,0 C 94 % 997,9 hPa 0,0 l/m 0 min 0 min 0 W/m 6,4 km/h (2 Bft) 97,83 %
31.10.2021 21:14 12,0 C 11,1 C 10,0 C 94 % 998,0 hPa 0,0 l/m 0 min 0 min 0 W/m 6,4 km/h (2 Bft) 95,74 %
31.10.2021 21:16 12,0 C 11,1 C 10,0 C 94 % 998,0 hPa 0,0 l/m 0 min 0 min 0 W/m 6,4 km/h (2 Bft) 98,11 %
31.10.2021 21:18 11,9 C 11,1 C 10,0 C 94 % 998,0 hPa 0,0 l/m 0 min 0 min 0 W/m 12,9 km/h (3 Bft) 97,87 %
31.10.2021 21:20 11,9 C 11,1 C 10,0 C 94 % 998,0 hPa 0,0 l/m 0 min 0 min 0 W/m 6,4 km/h (2 Bft) 97,87 %
31.10.2021 21:22 11,9 C 11,1 C 10,0 C 94 % 998,0 hPa 0,0 l/m 0 min 0 min 0 W/m 6,4 km/h (2 Bft) 97,83 %
31.10.2021 21:24 11,9 C 11,1 C 10,0 C 94 % 998,2 hPa 0,0 l/m 0 min 0 min 0 W/m 6,4 km/h (2 Bft) 97,87 %
31.10.2021 21:26 11,8 C 11,1 C 10,0 C 94 % 998,2 hPa 0,0 l/m 0 min 0 min 0 W/m 6,4 km/h (2 Bft) 97,87 %
31.10.2021 21:28 11,8 C 11,1 C 10,0 C 94 % 998,3 hPa 0,0 l/m 0 min 0 min 0 W/m 22,5 km/h (4 Bft) 97,87 %
31.10.2021 21:30 11,8 C 10,6 C 10,0 C 94 % 998,4 hPa 0,0 l/m 0 min 0 min 0 W/m 12,9 km/h (3 Bft) 100,00 %
31.10.2021 21:32 11,7 C 10,6 C 10,0 C 94 % 998,4 hPa 0,0 l/m 0 min 0 min 0 W/m 19,3 km/h (3 Bft) 100,00 %
31.10.2021 21:34 11,7 C 10,6 C 10,0 C 94 % 998,4 hPa 0,0 l/m 0 min 0 min 0 W/m 12,9 km/h (3 Bft) 100,00 %
31.10.2021 21:36 11,6 C 10,6 C 10,0 C 94 % 998,5 hPa 0,0 l/m 0 min 0 min 0 W/m 12,9 km/h (3 Bft) 97,87 %
31.10.2021 21:38 11,6 C 10,6 C 10,0 C 94 % 998,5 hPa 0,0 l/m 0 min 0 min 0 W/m 12,9 km/h (3 Bft) 97,87 %
31.10.2021 21:40 11,6 C 10,6 C 10,0 C 94 % 998,5 hPa 0,0 l/m 0 min 0 min 0 W/m 16,1 km/h (3 Bft) 97,87 %
31.10.2021 21:42 11,6 C 10,6 C 10,0 C 94 % 998,4 hPa 0,0 l/m 0 min 0 min 0 W/m 9,7 km/h (2 Bft) 95,74 %
31.10.2021 21:44 11,6 C 10,6 C 10,0 C 94 % 998,4 hPa 0,0 l/m 0 min 0 min 0 W/m 6,4 km/h (2 Bft) 97,87 %
31.10.2021 21:46 11,6 C 10,6 C 10,0 C 94 % 998,3 hPa 0,0 l/m 0 min 0 min 0 W/m 6,4 km/h (2 Bft) 97,83 %
31.10.2021 21:48 11,5 C 10,6 C 10,0 C 94 % 998,3 hPa 0,0 l/m 0 min 0 min 0 W/m 16,1 km/h (3 Bft) 97,87 %
31.10.2021 21:50 11,5 C 10,6 C 10,0 C 94 % 998,3 hPa 0,0 l/m 0 min 0 min 0 W/m 12,9 km/h (3 Bft) 97,87 %
31.10.2021 21:52 11,5 C 10,6 C 10,0 C 94 % 998,4 hPa 0,0 l/m 0 min 0 min 0 W/m 12,9 km/h (3 Bft) 100,00 %
31.10.2021 21:54 11,5 C 10,6 C 10,0 C 94 % 998,5 hPa 0,0 l/m 0 min 0 min 0 W/m 12,9 km/h (3 Bft) 97,87 %
31.10.2021 21:56 11,5 C 10,6 C 10,0 C 94 % 998,6 hPa 0,0 l/m 0 min 0 min 0 W/m 16,1 km/h (3 Bft) 95,12 %
31.10.2021 21:58 11,5 C 10,6 C 10,0 C 94 % 998,7 hPa 0,0 l/m 0 min 0 min 0 W/m 16,1 km/h (3 Bft) 97,87 %
31.10.2021 22:00 11,5 C 10,6 C 10,0 C 94 % 998,8 hPa 0,0 l/m 0 min 0 min 0 W/m 22,5 km/h (4 Bft) 97,83 %
31.10.2021 22:02 11,5 C 10,6 C 10,0 C 94 % 998,8 hPa 0,0 l/m 0 min 0 min 0 W/m 9,7 km/h (2 Bft) 95,74 %
31.10.2021 22:04 11,5 C 10,6 C 10,0 C 94 % 998,8 hPa 0,0 l/m 0 min 0 min 0 W/m 6,4 km/h (2 Bft) 95,74 %
31.10.2021 22:06 11,5 C 10,6 C 10,0 C 94 % 998,9 hPa 0,0 l/m 0 min 0 min 0 W/m 12,9 km/h (3 Bft) 97,87 %
31.10.2021 22:08 11,4 C 10,6 C 10,0 C 94 % 998,9 hPa 0,0 l/m 0 min 0 min 0 W/m 12,9 km/h (3 Bft) 97,87 %
31.10.2021 22:10 11,4 C 10,6 C 10,0 C 95 % 998,8 hPa 0,0 l/m 0 min 0 min 0 W/m 12,9 km/h (3 Bft) 97,87 %
31.10.2021 22:12 11,4 C 10,6 C 10,0 C 95 % 998,8 hPa 0,0 l/m 0 min 0 min 0 W/m 19,3 km/h (3 Bft) 97,87 %
31.10.2021 22:14 11,4 C 10,6 C 10,0 C 95 % 998,9 hPa 0,0 l/m 0 min 0 min 0 W/m 9,7 km/h (2 Bft) 95,65 %
31.10.2021 22:16 11,4 C 10,6 C 10,0 C 95 % 999,0 hPa 0,0 l/m 0 min 0 min 0 W/m 16,1 km/h (3 Bft) 97,87 %
31.10.2021 22:18 11,4 C 10,6 C 10,0 C 95 % 999,0 hPa 0,0 l/m 0 min 0 min 0 W/m 12,9 km/h (3 Bft) 97,87 %
31.10.2021 22:20 11,4 C 10,6 C 10,0 C 95 % 999,1 hPa 0,0 l/m 0 min 0 min 0 W/m 25,7 km/h (4 Bft) 91,49 %
31.10.2021 22:22 11,4 C 10,6 C 10,0 C 95 % 999,0 hPa 0,0 l/m 0 min 0 min 0 W/m 16,1 km/h (3 Bft) 97,87 %
31.10.2021 22:24 11,4 C 10,6 C 10,0 C 95 % 999,2 hPa 0,0 l/m 0 min 0 min 0 W/m 16,1 km/h (3 Bft) 97,83 %
31.10.2021 22:26 11,4 C 10,6 C 10,0 C 95 % 999,3 hPa 0,0 l/m 0 min 0 min 0 W/m 22,5 km/h (4 Bft) 95,74 %
31.10.2021 22:28 11,4 C 10,6 C 10,0 C 95 % 999,2 hPa 0,0 l/m 0 min 0 min 0 W/m 12,9 km/h (3 Bft) 100,00 %
31.10.2021 22:30 11,4 C 10,6 C 10,0 C 95 % 999,1 hPa 0,0 l/m 0 min 0 min 0 W/m 19,3 km/h (3 Bft) 97,87 %
31.10.2021 22:32 11,4 C 10,6 C 10,0 C 95 % 999,0 hPa 0,0 l/m 0 min 0 min 0 W/m 19,3 km/h (3 Bft) 100,00 %
31.10.2021 22:34 11,4 C 10,6 C 10,0 C 95 % 998,8 hPa 0,0 l/m 0 min 0 min 0 W/m 12,9 km/h (3 Bft) 97,87 %
31.10.2021 22:36 11,4 C 10,6 C 10,0 C 95 % 999,0 hPa 0,0 l/m 0 min 0 min 0 W/m 19,3 km/h (3 Bft) 95,65 %
31.10.2021 22:38 11,4 C 10,6 C 10,0 C 95 % 999,2 hPa 0,0 l/m 0 min 0 min 0 W/m 9,7 km/h (2 Bft) 95,74 %
31.10.2021 22:40 11,4 C 10,6 C 10,0 C 95 % 999,3 hPa 0,0 l/m 0 min 0 min 0 W/m 16,1 km/h (3 Bft) 97,87 %
31.10.2021 22:42 11,4 C 10,6 C 10,0 C 95 % 999,4 hPa 0,0 l/m 0 min 0 min 0 W/m 16,1 km/h (3 Bft) 97,87 %
31.10.2021 22:44 11,3 C 10,6 C 10,0 C 95 % 999,3 hPa 0,0 l/m 0 min 0 min 0 W/m 16,1 km/h (3 Bft) 97,87 %
31.10.2021 22:46 11,3 C 10,6 C 10,0 C 95 % 999,3 hPa 0,0 l/m 0 min 0 min 0 W/m 9,7 km/h (2 Bft) 97,87 %
31.10.2021 22:48 11,3 C 10,6 C 10,0 C 95 % 999,1 hPa 0,0 l/m 0 min 0 min 0 W/m 6,4 km/h (2 Bft) 97,83 %
31.10.2021 22:50 11,3 C 10,6 C 10,0 C 95 % 999,2 hPa 0,0 l/m 0 min 0 min 0 W/m 22,5 km/h (4 Bft) 97,87 %
31.10.2021 22:52 11,3 C 10,6 C 10,0 C 95 % 999,3 hPa 0,0 l/m 0 min 0 min 0 W/m 22,5 km/h (4 Bft) 97,87 %
31.10.2021 22:54 11,3 C 10,6 C 10,0 C 95 % 999,4 hPa 0,0 l/m 0 min 0 min 0 W/m 6,4 km/h (2 Bft) 97,87 %
31.10.2021 22:56 11,3 C 10,6 C 10,0 C 95 % 999,4 hPa 0,0 l/m 0 min 0 min 0 W/m 19,3 km/h (3 Bft) 97,87 %
31.10.2021 22:58 11,3 C 10,6 C 10,0 C 95 % 999,4 hPa 0,0 l/m 0 min 0 min 0 W/m 12,9 km/h (3 Bft) 93,62 %
31.10.2021 23:00 11,2 C 10,6 C 10,0 C 95 % 999,5 hPa 0,0 l/m 0 min 0 min 0 W/m 16,1 km/h (3 Bft) 97,87 %
31.10.2021 23:02 11,2 C 10,6 C 10,0 C 95 % 999,5 hPa 0,0 l/m 0 min 0 min 0 W/m 9,7 km/h (2 Bft) 97,87 %
31.10.2021 23:04 11,1 C 10,6 C 10,0 C 95 % 999,5 hPa 0,0 l/m 0 min 0 min 0 W/m 16,1 km/h (3 Bft) 97,87 %
31.10.2021 23:06 11,1 C 10,6 C 9,5 C 95 % 999,5 hPa 0,0 l/m 0 min 0 min 0 W/m 12,9 km/h (3 Bft) 97,87 %
31.10.2021 23:08 11,1 C 10,0 C 9,5 C 95 % 999,5 hPa 0,0 l/m 0 min 0 min 0 W/m 12,9 km/h (3 Bft) 95,74 %
31.10.2021 23:10 11,1 C 10,0 C 9,5 C 95 % 999,5 hPa 0,0 l/m 0 min 0 min 0 W/m 12,9 km/h (3 Bft) 97,83 %
31.10.2021 23:12 11,0 C 10,0 C 9,5 C 95 % 999,5 hPa 0,0 l/m 0 min 0 min 0 W/m 6,4 km/h (2 Bft) 100,00 %
31.10.2021 23:14 11,0 C 10,0 C 9,5 C 95 % 999,5 hPa 0,0 l/m 0 min 0 min 0 W/m 6,4 km/h (2 Bft) 100,00 %
31.10.2021 23:16 11,0 C 10,0 C 9,5 C 95 % 999,5 hPa 0,0 l/m 0 min 0 min 0 W/m 9,7 km/h (2 Bft) 100,00 %
31.10.2021 23:18 11,0 C 10,0 C 9,5 C 95 % 999,6 hPa 0,0 l/m 0 min 0 min 0 W/m 6,4 km/h (2 Bft) 97,62 %
31.10.2021 23:20 11,0 C 10,0 C 9,5 C 95 % 999,7 hPa 0,0 l/m 0 min 0 min 0 W/m 12,9 km/h (3 Bft) 97,96 %
31.10.2021 23:22 11,0 C 10,0 C 9,5 C 95 % 999,7 hPa 0,0 l/m 0 min 0 min 0 W/m 16,1 km/h (3 Bft) 95,74 %
31.10.2021 23:24 11,0 C 10,0 C 9,5 C 95 % 999,8 hPa 0,0 l/m 0 min 0 min 0 W/m 6,4 km/h (2 Bft) 95,65 %
31.10.2021 23:26 10,9 C 10,0 C 9,5 C 95 % 999,8 hPa 0,0 l/m 0 min 0 min 0 W/m 12,9 km/h (3 Bft) 97,87 %
31.10.2021 23:28 10,9 C 10,0 C 9,5 C 95 % 999,8 hPa 0,0 l/m 0 min 0 min 0 W/m 9,7 km/h (2 Bft) 97,87 %
31.10.2021 23:30 10,9 C 10,0 C 9,5 C 95 % 999,8 hPa 0,0 l/m 0 min 0 min 0 W/m 6,4 km/h (2 Bft) 97,87 %
31.10.2021 23:32 10,9 C 10,0 C 9,5 C 95 % 999,8 hPa 0,0 l/m 0 min 0 min 0 W/m 16,1 km/h (3 Bft) 95,74 %
31.10.2021 23:34 10,8 C 10,0 C 9,5 C 95 % 999,8 hPa 0,0 l/m 0 min 0 min 0 W/m 16,1 km/h (3 Bft) 97,96 %
31.10.2021 23:36 10,8 C 10,0 C 9,5 C 95 % 999,8 hPa 0,0 l/m 0 min 0 min 0 W/m 9,7 km/h (2 Bft) 97,87 %
31.10.2021 23:38 10,8 C 10,0 C 9,5 C 95 % 999,8 hPa 0,0 l/m 0 min 0 min 0 W/m 19,3 km/h (3 Bft) 97,87 %
31.10.2021 23:40 10,8 C 10,0 C 9,5 C 94 % 999,8 hPa 0,0 l/m 0 min 0 min 0 W/m 22,5 km/h (4 Bft) 97,87 %
31.10.2021 23:42 10,8 C 10,0 C 9,5 C 94 % 999,8 hPa 0,0 l/m 0 min 0 min 0 W/m 16,1 km/h (3 Bft) 97,87 %
31.10.2021 23:44 10,7 C 10,0 C 9,5 C 94 % 999,8 hPa 0,0 l/m 0 min 0 min 0 W/m 9,7 km/h (2 Bft) 97,87 %
31.10.2021 23:46 10,7 C 10,0 C 9,5 C 94 % 999,8 hPa 0,0 l/m 0 min 0 min 0 W/m 16,1 km/h (3 Bft) 95,65 %
31.10.2021 23:48 10,6 C 10,0 C 9,5 C 95 % 999,8 hPa 0,0 l/m 0 min 0 min 0 W/m 6,4 km/h (2 Bft) 97,87 %
31.10.2021 23:50 10,6 C 10,0 C 9,5 C 94 % 999,8 hPa 0,0 l/m 0 min 0 min 0 W/m 12,9 km/h (3 Bft) 97,87 %
31.10.2021 23:52 10,6 C 10,0 C 9,5 C 94 % 999,8 hPa 0,0 l/m 0 min 0 min 0 W/m 12,9 km/h (3 Bft) 95,74 %
31.10.2021 23:54 10,6 C 10,0 C 9,5 C 94 % 999,8 hPa 0,0 l/m 0 min 0 min 0 W/m 12,9 km/h (3 Bft) 97,87 %
31.10.2021 23:56 10,6 C 10,0 C 9,5 C 94 % 999,9 hPa 0,0 l/m 0 min 0 min 0 W/m 12,9 km/h (3 Bft) 95,74 %
31.10.2021 23:58 10,5 C 10,0 C 8,9 C 94 % 999,8 hPa 0,0 l/m 0 min 0 min 0 W/m 19,3 km/h (3 Bft) 95,65 %
_ Min-Zeit 07:46 06:00 06:46 11:32 20:06 - - - - 03:08 06:22
Minimum _ 9,3 C 8,9 C 8,9 C 86 % 994,5 hPa - - - - 0,0 km/h (0 Bft) 37,50 %
_ Max-Zeit 17:58 10:36 17:40 00:38 04:00 20:18 09:12 18:08 10:32 20:10 00:56
Maximum _ 16,6 C 20,6 C 14,5 C 97 % 1007,9 hPa 1,4 l/m 2 min 4 min 387 W/m 38,6 km/h
S-SO (5 Bft)
100,00 %
Durchschnitt _ 12,7 C 12,3 C 11,4 C 93 % 1002,6 hPa #6,0 l/m #2:30 h #2:02 h 122 W/m 12,4 km/h (3 Bft) 97,48 %
© 2021 W. Hausmann